Time,TemperatureF,DewpointF,PressureIn,WindDirection,WindDirectionDegrees,WindSpeedMPH,WindSpeedGustMPH,Humidity,HourlyPrecipIn,Conditions,Clouds,dailyrainin,SoftwareType,DateUTC
2013-04-26 00:00:00,68.0,11.5,30.02,WNW,298,7.0,7.0,11,0.00,CLR,,0.00,WeatherDisplay:10.37,2013-04-26 06:00:00,
2013-04-26 00:01:00,68.1,11.5,30.02,West,266,9.2,9.2,11,0.00,CLR,,0.00,WeatherDisplay:10.37,2013-04-26 06:01:00,
2013-04-26 00:05:00,68.2,11.6,30.02,West,278,6.9,6.9,11,0.00,CLR,,0.00,WeatherDisplay:10.37,2013-04-26 06:05:00,
2013-04-26 00:06:00,68.1,11.5,30.02,WNW,294,6.9,6.9,11,0.00,CLR,,0.00,WeatherDisplay:10.37,2013-04-26 06:06:00,
2013-04-26 00:10:00,67.9,11.4,30.02,West,262,9.2,9.2,11,0.00,CLR,,0.00,WeatherDisplay:10.37,2013-04-26 06:10:00,
2013-04-26 00:11:00,67.9,11.4,30.02,NW,305,9.2,9.2,11,0.00,CLR,,0.00,WeatherDisplay:10.37,2013-04-26 06:11:00,
2013-04-26 00:16:00,67.5,13.0,30.03,NW,305,4.6,4.6,12,0.00,CLR,,0.00,WeatherDisplay:10.37,2013-04-26 06:16:00,
2013-04-26 00:21:00,66.8,12.5,30.03,NNE,16,2.3,2.3,12,0.00,CLR,,0.00,WeatherDisplay:10.37,2013-04-26 06:21:00,
2013-04-26 00:22:00,66.6,12.3,30.03,NNW,333,2.3,2.3,12,0.00,CLR,,0.00,WeatherDisplay:10.37,2013-04-26 06:22:00,
2013-04-26 00:26:00,66.0,11.9,30.03,NNW,346,2.3,2.3,12,0.00,CLR,,0.00,WeatherDisplay:10.37,2013-04-26 06:26:00,
2013-04-26 00:27:00,65.8,11.7,30.03,NNW,345,1.1,0.0,12,0.00,CLR,,0.00,WeatherDisplay:10.37,2013-04-26 06:27:00,
2013-04-26 00:31:00,65.3,11.3,30.03,NW,319,0.0,0.0,12,0.00,CLR,,0.00,WeatherDisplay:10.37,2013-04-26 06:31:00,
2013-04-26 00:32:00,65.2,7.2,30.03,NNW,341,0.0,0.0,10,0.00,CLR,,0.00,WeatherDisplay:10.37,2013-04-26 06:32:00,
2013-04-26 00:36:00,64.8,6.9,30.04,North,358,3.4,3.4,10,0.00,CLR,,0.00,WeatherDisplay:10.37,2013-04-26 06:36:00,
2013-04-26 00:37:00,64.7,6.8,30.04,North,355,3.4,3.4,10,0.00,CLR,,0.00,WeatherDisplay:10.37,2013-04-26 06:37:00,
2013-04-26 00:41:00,64.7,6.8,30.04,NNE,18,5.0,5.0,10,0.00,CLR,,0.00,WeatherDisplay:10.37,2013-04-26 06:41:00,
2013-04-26 00:42:00,64.7,6.8,30.04,NNW,335,5.0,5.0,10,0.00,CLR,,0.00,WeatherDisplay:10.37,2013-04-26 06:42:00,
2013-04-26 00:47:00,64.9,14.5,30.04,NE,52,3.4,3.4,14,0.00,CLR,,0.00,WeatherDisplay:10.37,2013-04-26 06:47:00,
2013-04-26 00:52:00,65.2,14.7,30.04,WNW,302,4.6,4.6,14,0.00,CLR,,0.00,WeatherDisplay:10.37,2013-04-26 06:52:00,
2013-04-26 00:57:00,65.4,16.5,30.04,NW,305,5.0,5.0,15,0.00,CLR,,0.00,WeatherDisplay:10.37,2013-04-26 06:57:00,
2013-04-26 01:02:00,65.3,16.4,30.04,NW,305,3.4,3.4,15,0.00,CLR,,0.00,WeatherDisplay:10.37,2013-04-26 07:02:00,
2013-04-26 01:03:00,65.3,16.4,30.04,WNW,300,5.0,5.0,15,0.00,CLR,,0.00,WeatherDisplay:10.37,2013-04-26 07:03:00,
2013-04-26 01:07:00,65.1,16.2,30.04,WNW,302,4.6,4.6,15,0.00,CLR,,0.00,WeatherDisplay:10.37,2013-04-26 07:07:00,
2013-04-26 01:08:00,65.0,16.2,30.04,WNW,285,5.0,5.0,15,0.00,CLR,,0.00,WeatherDisplay:10.37,2013-04-26 07:08:00,
2013-04-26 01:12:00,64.9,16.1,30.05,WNW,290,3.4,3.9,15,0.00,CLR,,0.00,WeatherDisplay:10.37,2013-04-26 07:12:00,
2013-04-26 01:13:00,64.9,16.1,30.05,WNW,295,5.8,5.8,15,0.00,CLR,,0.00,WeatherDisplay:10.37,2013-04-26 07:13:00,
2013-04-26 01:17:00,64.6,17.3,30.05,WNW,293,3.0,3.0,16,0.00,CLR,,0.00,WeatherDisplay:10.37,2013-04-26 07:17:00,
2013-04-26 01:18:00,64.6,17.3,30.05,WNW,291,2.3,2.3,16,0.00,CLR,,0.00,WeatherDisplay:10.37,2013-04-26 07:18:00,
2013-04-26 01:23:00,64.2,17.0,30.04,WNW,298,2.3,2.3,16,0.00,CLR,,0.00,WeatherDisplay:10.37,2013-04-26 07:23:00,
2013-04-26 01:28:00,64.0,16.8,30.05,WNW,290,3.4,3.4,16,0.00,CLR,,0.00,WeatherDisplay:10.37,2013-04-26 07:28:00,
2013-04-26 01:29:00,63.9,16.8,30.05,NW,319,6.0,6.0,16,0.00,CLR,,0.00,WeatherDisplay:10.37,2013-04-26 07:29:00,
2013-04-26 01:33:00,63.8,18.1,30.05,WNW,298,5.8,5.8,17,0.00,CLR,,0.00,WeatherDisplay:10.37,2013-04-26 07:33:00,
2013-04-26 01:34:00,63.8,18.1,30.05,West,270,5.8,5.8,17,0.00,CLR,,0.00,WeatherDisplay:10.37,2013-04-26 07:34:00,
2013-04-26 01:39:00,63.7,18.0,30.05,NNW,329,4.6,4.6,17,0.00,CLR,,0.00,WeatherDisplay:10.37,2013-04-26 07:39:00,
2013-04-26 01:44:00,63.5,19.2,30.05,West,277,3.4,3.4,18,0.00,CLR,,0.00,WeatherDisplay:10.37,2013-04-26 07:44:00,
2013-04-26 01:49:00,63.4,19.1,30.05,NW,307,4.6,4.6,18,0.00,CLR,,0.00,WeatherDisplay:10.37,2013-04-26 07:49:00,
2013-04-26 01:50:00,63.3,19.0,30.05,NW,312,2.3,2.3,18,0.00,CLR,,0.00,WeatherDisplay:10.37,2013-04-26 07:50:00,
2013-04-26 01:54:00,63.2,18.9,30.05,NE,47,6.9,6.9,18,0.00,CLR,,0.00,WeatherDisplay:10.37,2013-04-26 07:54:00,
2013-04-26 01:55:00,63.1,20.1,30.05,NNW,335,3.4,3.4,19,0.00,CLR,,0.00,WeatherDisplay:10.37,2013-04-26 07:55:00,
2013-04-26 01:59:00,63.0,20.0,30.05,NW,322,4.6,4.6,19,0.00,CLR,,0.00,WeatherDisplay:10.37,2013-04-26 07:59:00,
2013-04-26 02:00:00,63.0,20.0,30.05,NW,318,4.6,4.6,19,0.00,CLR,,0.00,WeatherDisplay:10.37,2013-04-26 08:00:00,
2013-04-26 02:04:00,62.9,20.0,30.05,NNW,330,2.0,5.0,19,0.00,CLR,,0.00,WeatherDisplay:10.37,2013-04-26 08:04:00,
2013-04-26 02:05:00,62.8,19.9,30.05,NW,324,5.8,5.8,19,0.00,CLR,,0.00,WeatherDisplay:10.37,2013-04-26 08:05:00,
2013-04-26 02:06:00,62.8,19.9,30.05,NW,319,5.8,5.8,19,0.00,CLR,,0.00,WeatherDisplay:10.37,2013-04-26 08:06:00,
2013-04-26 02:10:00,62.5,19.6,30.05,North,359,3.4,3.4,19,0.00,CLR,,0.00,WeatherDisplay:10.37,2013-04-26 08:10:00,
2013-04-26 02:11:00,62.5,20.8,30.05,NNW,336,3.4,3.4,20,0.00,CLR,,0.00,WeatherDisplay:10.37,2013-04-26 08:11:00,
2013-04-26 02:15:00,62.2,20.6,30.05,NE,49,4.6,4.6,20,0.00,CLR,,0.00,WeatherDisplay:10.37,2013-04-26 08:15:00,
2013-04-26 02:16:00,62.2,20.6,30.05,NW,321,5.8,5.8,20,0.00,CLR,,0.00,WeatherDisplay:10.37,2013-04-26 08:16:00,
2013-04-26 02:20:00,62.2,20.6,30.05,North,8,5.8,5.8,20,0.00,CLR,,0.00,WeatherDisplay:10.37,2013-04-26 08:20:00,
2013-04-26 02:21:00,62.1,20.5,30.05,North,11,3.4,3.4,20,0.00,CLR,,0.00,WeatherDisplay:10.37,2013-04-26 08:21:00,
2013-04-26 02:25:00,61.9,20.3,30.05,NNW,329,3.4,3.4,20,0.00,CLR,,0.00,WeatherDisplay:10.37,2013-04-26 08:25:00,
2013-04-26 02:26:00,61.9,20.3,30.05,NNW,336,9.2,9.2,20,0.00,CLR,,0.00,WeatherDisplay:10.37,2013-04-26 08:26:00,
2013-04-26 02:30:00,61.8,21.4,30.05,NNW,340,5.8,5.8,21,0.00,CLR,,0.00,WeatherDisplay:10.37,2013-04-26 08:30:00,
2013-04-26 02:31:00,61.7,21.3,30.06,NNE,18,4.6,4.6,21,0.00,CLR,,0.00,WeatherDisplay:10.37,2013-04-26 08:31:00,
2013-04-26 02:35:00,61.7,21.3,30.06,WNW,300,3.4,3.4,21,0.00,CLR,,0.00,WeatherDisplay:10.37,2013-04-26 08:35:00,
2013-04-26 02:36:00,61.7,21.3,30.06,NW,311,3.4,3.6,21,0.00,CLR,,0.00,WeatherDisplay:10.37,2013-04-26 08:36:00,
2013-04-26 02:38:00,61.7,21.3,30.06,WNW,293,5.0,5.0,21,0.00,CLR,,0.00,WeatherDisplay:10.37,2013-04-26 08:38:00,
2013-04-26 02:41:00,61.7,21.3,30.06,NNW,342,5.8,5.8,21,0.00,CLR,,0.00,WeatherDisplay:10.37,2013-04-26 08:41:00,
2013-04-26 02:43:00,61.6,21.2,30.06,NNW,345,7.0,7.0,21,0.00,CLR,,0.00,WeatherDisplay:10.37,2013-04-26 08:43:00,
2013-04-26 02:46:00,61.6,21.2,30.06,NNW,334,6.9,6.9,21,0.00,CLR,,0.00,WeatherDisplay:10.37,2013-04-26 08:46:00,
2013-04-26 02:47:00,61.7,21.3,30.06,NNW,338,6.9,6.9,21,0.00,CLR,,0.00,WeatherDisplay:10.37,2013-04-26 08:47:00,
2013-04-26 02:48:00,61.7,22.4,30.06,NNE,16,5.8,5.8,22,0.00,CLR,,0.00,WeatherDisplay:10.37,2013-04-26 08:48:00,
2013-04-26 02:51:00,61.6,22.3,30.06,WNW,290,6.9,6.9,22,0.00,CLR,,0.00,WeatherDisplay:10.37,2013-04-26 08:51:00,
2013-04-26 02:52:00,61.6,22.3,30.06,NNW,345,4.6,4.6,22,0.00,CLR,,0.00,WeatherDisplay:10.37,2013-04-26 08:52:00,
2013-04-26 02:53:00,61.5,22.3,30.06,NW,324,3.4,3.4,22,0.00,CLR,,0.00,WeatherDisplay:10.37,2013-04-26 08:53:00,
2013-04-26 02:56:00,61.4,22.2,30.06,NNW,338,9.2,9.2,22,0.00,CLR,,0.00,WeatherDisplay:10.37,2013-04-26 08:56:00,
2013-04-26 02:57:00,61.4,22.2,30.06,NNW,339,9.2,9.2,22,0.00,CLR,,0.00,WeatherDisplay:10.37,2013-04-26 08:57:00,
2013-04-26 02:58:00,61.4,22.2,30.07,NW,307,13.8,13.8,22,0.00,CLR,,0.00,WeatherDisplay:10.37,2013-04-26 08:58:00,
2013-04-26 03:02:00,61.5,22.3,30.07,NW,305,5.0,5.0,22,0.00,CLR,,0.00,WeatherDisplay:10.37,2013-04-26 09:02:00,
2013-04-26 03:03:00,61.5,22.3,30.06,WNW,292,5.8,5.8,22,0.00,CLR,,0.00,WeatherDisplay:10.37,2013-04-26 09:03:00,
2013-04-26 03:07:00,61.4,22.2,30.07,NW,316,5.0,5.0,22,0.00,CLR,,0.00,WeatherDisplay:10.37,2013-04-26 09:07:00,
2013-04-26 03:08:00,61.3,22.1,30.07,NW,321,4.0,4.0,22,0.00,CLR,,0.00,WeatherDisplay:10.37,2013-04-26 09:08:00,
2013-04-26 03:12:00,61.2,22.0,30.07,NNW,333,4.0,4.0,22,0.00,CLR,,0.00,WeatherDisplay:10.37,2013-04-26 09:12:00,
2013-04-26 03:13:00,61.2,22.0,30.07,NW,305,6.9,6.9,22,0.00,CLR,,0.00,WeatherDisplay:10.37,2013-04-26 09:13:00,
2013-04-26 03:14:00,61.2,22.0,30.06,WNW,283,5.0,5.0,22,0.00,CLR,,0.00,WeatherDisplay:10.37,2013-04-26 09:14:00,
2013-04-26 03:17:00,61.1,21.9,30.07,NW,319,5.8,5.8,22,0.00,CLR,,0.00,WeatherDisplay:10.37,2013-04-26 09:17:00,
2013-04-26 03:18:00,61.0,21.8,30.07,NW,325,4.0,4.0,22,0.00,CLR,,0.00,WeatherDisplay:10.37,2013-04-26 09:18:00,
2013-04-26 03:19:00,61.0,21.8,30.06,NE,48,5.8,5.8,22,0.00,CLR,,0.00,WeatherDisplay:10.37,2013-04-26 09:19:00,
2013-04-26 03:22:00,60.8,21.7,30.06,NNW,338,4.6,4.6,22,0.00,CLR,,0.00,WeatherDisplay:10.37,2013-04-26 09:22:00,
2013-04-26 03:23:00,60.7,21.6,30.06,NNW,333,5.0,5.0,22,0.00,CLR,,0.00,WeatherDisplay:10.37,2013-04-26 09:23:00,
2013-04-26 03:24:00,60.7,21.6,30.06,NNW,340,5.0,8.0,22,0.00,CLR,,0.00,WeatherDisplay:10.37,2013-04-26 09:24:00,
2013-04-26 03:27:00,60.4,21.3,30.06,NNW,348,6.9,6.9,22,0.00,CLR,,0.00,WeatherDisplay:10.37,2013-04-26 09:27:00,
2013-04-26 03:28:00,60.4,21.3,30.06,NNE,17,5.0,5.0,22,0.00,CLR,,0.00,WeatherDisplay:10.37,2013-04-26 09:28:00,
2013-04-26 03:29:00,60.3,21.2,30.07,NW,305,5.8,5.8,22,0.00,CLR,,0.00,WeatherDisplay:10.37,2013-04-26 09:29:00,
2013-04-26 03:32:00,60.0,22.0,30.07,WNW,295,4.6,4.6,23,0.00,CLR,,0.00,WeatherDisplay:10.37,2013-04-26 09:32:00,
2013-04-26 03:33:00,60.0,22.0,30.07,NE,49,4.6,4.6,23,0.00,CLR,,0.00,WeatherDisplay:10.37,2013-04-26 09:33:00,
2013-04-26 03:34:00,59.9,22.0,30.07,North,352,2.3,2.3,23,0.00,CLR,,0.00,WeatherDisplay:10.37,2013-04-26 09:34:00,
2013-04-26 03:37:00,59.6,21.7,30.07,NE,37,3.4,3.4,23,0.00,CLR,,0.00,WeatherDisplay:10.37,2013-04-26 09:37:00,
2013-04-26 03:38:00,59.5,21.6,30.07,North,6,3.4,3.4,23,0.00,CLR,,0.00,WeatherDisplay:10.37,2013-04-26 09:38:00,
2013-04-26 03:39:00,59.4,21.5,30.07,North,1,3.4,3.4,23,0.00,CLR,,0.00,WeatherDisplay:10.37,2013-04-26 09:39:00,
2013-04-26 03:43:00,59.2,21.4,30.07,North,358,3.4,3.4,23,0.00,CLR,,0.00,WeatherDisplay:10.37,2013-04-26 09:43:00,
2013-04-26 03:44:00,59.2,21.4,30.07,NNE,19,3.4,3.4,23,0.00,CLR,,0.00,WeatherDisplay:10.37,2013-04-26 09:44:00,
2013-04-26 03:45:00,59.2,21.4,30.07,NNE,25,1.1,1.1,23,0.00,CLR,,0.00,WeatherDisplay:10.37,2013-04-26 09:45:00,
2013-04-26 03:48:00,59.1,21.3,30.07,North,358,5.8,5.8,23,0.00,CLR,,0.00,WeatherDisplay:10.37,2013-04-26 09:48:00,
2013-04-26 03:49:00,59.1,21.3,30.07,NNE,32,3.4,3.4,23,0.00,CLR,,0.00,WeatherDisplay:10.37,2013-04-26 09:49:00,
2013-04-26 03:50:00,59.1,21.3,30.07,North,353,3.4,3.4,23,0.00,CLR,,0.00,WeatherDisplay:10.37,2013-04-26 09:50:00,
2013-04-26 03:53:00,59.1,21.3,30.07,NW,314,4.6,4.6,23,0.00,CLR,,0.00,WeatherDisplay:10.37,2013-04-26 09:53:00,
2013-04-26 03:54:00,59.1,21.3,30.08,North,352,5.8,5.8,23,0.00,CLR,,0.00,WeatherDisplay:10.37,2013-04-26 09:54:00,
2013-04-26 03:56:00,59.0,21.2,30.08,NNW,340,4.0,4.0,23,0.00,CLR,,0.00,WeatherDisplay:10.37,2013-04-26 09:56:00,
2013-04-26 03:59:00,59.0,22.2,30.08,NNE,12,3.4,3.4,24,0.00,CLR,,0.00,WeatherDisplay:10.37,2013-04-26 09:59:00,
2013-04-26 04:00:00,59.0,22.2,30.08,NNW,343,3.4,3.4,24,0.00,CLR,,0.00,WeatherDisplay:10.37,2013-04-26 10:00:00,
2013-04-26 04:01:00,59.0,22.2,30.08,NNW,329,5.8,5.8,24,0.00,CLR,,0.00,WeatherDisplay:10.37,2013-04-26 10:01:00,
2013-04-26 04:04:00,59.1,21.3,30.08,NNW,330,3.4,3.4,23,0.00,CLR,,0.00,WeatherDisplay:10.37,2013-04-26 10:04:00,
2013-04-26 04:05:00,59.1,22.3,30.08,ENE,67,3.4,3.4,24,0.00,CLR,,0.00,WeatherDisplay:10.37,2013-04-26 10:05:00,
2013-04-26 04:06:00,59.0,22.2,30.08,North,11,3.4,3.4,24,0.00,CLR,,0.00,WeatherDisplay:10.37,2013-04-26 10:06:00,
2013-04-26 04:09:00,59.0,22.2,30.08,North,1,3.4,3.4,24,0.00,CLR,,0.00,WeatherDisplay:10.37,2013-04-26 10:09:00,
2013-04-26 04:10:00,58.9,22.1,30.08,NNE,32,3.4,3.4,24,0.00,CLR,,0.00,WeatherDisplay:10.37,2013-04-26 10:10:00,
2013-04-26 04:11:00,58.9,22.1,30.08,NNE,29,3.4,3.4,24,0.00,CLR,,0.00,WeatherDisplay:10.37,2013-04-26 10:11:00,
2013-04-26 04:15:00,59.0,22.2,30.08,North,350,5.0,5.0,24,0.00,CLR,,0.00,WeatherDisplay:10.37,2013-04-26 10:15:00,
2013-04-26 04:16:00,59.0,22.2,30.08,NNE,18,3.4,3.4,24,0.00,CLR,,0.00,WeatherDisplay:10.37,2013-04-26 10:16:00,
2013-04-26 04:20:00,59.0,22.2,30.08,NNE,23,8.1,8.1,24,0.00,CLR,,0.00,WeatherDisplay:10.37,2013-04-26 10:20:00,
2013-04-26 04:21:00,59.1,21.3,30.09,NNE,18,5.8,5.8,23,0.00,CLR,,0.00,WeatherDisplay:10.37,2013-04-26 10:21:00,
2013-04-26 04:25:00,59.3,21.5,30.09,NE,39,5.8,5.8,23,0.00,CLR,,0.00,WeatherDisplay:10.37,2013-04-26 10:25:00,
2013-04-26 04:27:00,59.2,21.4,30.09,NNW,342,3.0,3.0,23,0.00,CLR,,0.00,WeatherDisplay:10.37,2013-04-26 10:27:00,
2013-04-26 04:30:00,59.2,21.4,30.09,NNW,347,3.4,3.4,23,0.00,CLR,,0.00,WeatherDisplay:10.37,2013-04-26 10:30:00,
2013-04-26 04:31:00,59.2,21.4,30.09,NNE,29,3.4,3.4,23,0.00,CLR,,0.00,WeatherDisplay:10.37,2013-04-26 10:31:00,
2013-04-26 04:32:00,59.1,21.3,30.09,North,10,2.3,2.3,23,0.00,CLR,,0.00,WeatherDisplay:10.37,2013-04-26 10:32:00,
2013-04-26 04:35:00,59.0,21.2,30.09,NNW,331,3.4,3.4,23,0.00,CLR,,0.00,WeatherDisplay:10.37,2013-04-26 10:35:00,
2013-04-26 04:36:00,59.1,21.3,30.09,NNW,348,3.4,3.4,23,0.00,CLR,,0.00,WeatherDisplay:10.37,2013-04-26 10:36:00,
2013-04-26 04:37:00,59.0,21.2,30.09,NNE,25,3.4,3.4,23,0.00,CLR,,0.00,WeatherDisplay:10.37,2013-04-26 10:37:00,
2013-04-26 04:40:00,59.0,21.2,30.09,North,9,3.4,3.4,23,0.00,CLR,,0.00,WeatherDisplay:10.37,2013-04-26 10:40:00,
2013-04-26 04:41:00,59.0,21.2,30.09,NNE,16,3.4,3.4,23,0.00,CLR,,0.00,WeatherDisplay:10.37,2013-04-26 10:41:00,
2013-04-26 04:42:00,59.0,21.2,30.10,NNE,25,1.1,1.1,23,0.00,CLR,,0.00,WeatherDisplay:10.37,2013-04-26 10:42:00,
2013-04-26 04:46:00,58.9,21.1,30.10,North,9,4.0,4.0,23,0.00,CLR,,0.00,WeatherDisplay:10.37,2013-04-26 10:46:00,
2013-04-26 04:47:00,58.9,21.1,30.10,NNE,16,3.4,3.4,23,0.00,CLR,,0.00,WeatherDisplay:10.37,2013-04-26 10:47:00,
2013-04-26 04:51:00,58.9,21.1,30.10,NNE,19,4.6,4.6,23,0.00,CLR,,0.00,WeatherDisplay:10.37,2013-04-26 10:51:00,
2013-04-26 04:53:00,58.8,21.0,30.10,North,8,3.4,3.4,23,0.00,CLR,,0.00,WeatherDisplay:10.37,2013-04-26 10:53:00,
2013-04-26 04:56:00,58.9,21.1,30.10,North,354,3.4,3.4,23,0.00,CLR,,0.00,WeatherDisplay:10.37,2013-04-26 10:56:00,
2013-04-26 04:57:00,58.9,21.1,30.10,NE,47,3.4,3.4,23,0.00,CLR,,0.00,WeatherDisplay:10.37,2013-04-26 10:57:00,
2013-04-26 04:58:00,59.0,21.2,30.10,NNE,15,3.4,3.4,23,0.00,CLR,,0.00,WeatherDisplay:10.37,2013-04-26 10:58:00,
2013-04-26 05:01:00,59.1,20.2,30.10,NNE,15,5.8,5.8,22,0.00,CLR,,0.00,WeatherDisplay:10.37,2013-04-26 11:01:00,
2013-04-26 05:02:00,59.2,20.3,30.10,North,3,5.8,5.8,22,0.00,CLR,,0.00,WeatherDisplay:10.37,2013-04-26 11:02:00,
2013-04-26 05:03:00,59.2,20.3,30.10,North,353,2.3,2.3,22,0.00,CLR,,0.00,WeatherDisplay:10.37,2013-04-26 11:03:00,
2013-04-26 05:04:00,59.2,20.3,30.10,North,6,2.3,2.3,22,0.00,CLR,,0.00,WeatherDisplay:10.37,2013-04-26 11:04:00,
2013-04-26 05:06:00,59.1,20.2,30.10,NE,35,2.3,2.3,22,0.00,CLR,,0.00,WeatherDisplay:10.37,2013-04-26 11:06:00,
2013-04-26 05:07:00,59.1,21.3,30.10,NW,316,2.3,2.3,23,0.00,CLR,,0.00,WeatherDisplay:10.37,2013-04-26 11:07:00,
2013-04-26 05:08:00,59.0,20.2,30.10,NW,322,3.4,3.4,22,0.00,CLR,,0.00,WeatherDisplay:10.37,2013-04-26 11:08:00,
2013-04-26 05:09:00,59.0,20.2,30.10,North,350,3.4,3.4,22,0.00,CLR,,0.00,WeatherDisplay:10.37,2013-04-26 11:09:00,
2013-04-26 05:11:00,58.8,21.0,30.10,NNE,19,3.4,3.4,23,0.00,CLR,,0.00,WeatherDisplay:10.37,2013-04-26 11:11:00,
2013-04-26 05:12:00,58.8,21.0,30.10,NNE,21,3.4,3.4,23,0.00,CLR,,0.00,WeatherDisplay:10.37,2013-04-26 11:12:00,
2013-04-26 05:14:00,58.8,21.0,30.10,North,8,3.4,3.4,23,0.00,CLR,,0.00,WeatherDisplay:10.37,2013-04-26 11:14:00,
2013-04-26 05:16:00,58.6,20.9,30.10,North,8,3.4,3.4,23,0.00,CLR,,0.00,WeatherDisplay:10.37,2013-04-26 11:16:00,
2013-04-26 05:17:00,58.6,20.9,30.10,North,8,3.4,3.4,23,0.00,CLR,,0.00,WeatherDisplay:10.37,2013-04-26 11:17:00,
2013-04-26 05:18:00,58.6,20.9,30.10,North,9,3.4,3.4,23,0.00,CLR,,0.00,WeatherDisplay:10.37,2013-04-26 11:18:00,
2013-04-26 05:19:00,58.5,20.8,30.10,North,9,1.1,1.1,23,0.00,CLR,,0.00,WeatherDisplay:10.37,2013-04-26 11:19:00,
2013-04-26 05:22:00,58.4,20.7,30.10,NNE,15,2.3,2.3,23,0.00,CLR,,0.00,WeatherDisplay:10.37,2013-04-26 11:22:00,
2013-04-26 05:23:00,58.4,20.7,30.10,NNE,22,3.4,3.4,23,0.00,CLR,,0.00,WeatherDisplay:10.37,2013-04-26 11:23:00,
2013-04-26 05:24:00,58.5,20.8,30.10,North,4,3.4,3.4,23,0.00,CLR,,0.00,WeatherDisplay:10.37,2013-04-26 11:24:00,
2013-04-26 05:27:00,58.6,20.9,30.10,NNE,23,3.4,3.4,23,0.00,CLR,,0.00,WeatherDisplay:10.37,2013-04-26 11:27:00,
2013-04-26 05:28:00,58.6,20.9,30.10,NNW,338,3.4,3.4,23,0.00,CLR,,0.00,WeatherDisplay:10.37,2013-04-26 11:28:00,
2013-04-26 05:29:00,58.6,20.9,30.10,NNE,28,3.4,3.4,23,0.00,CLR,,0.00,WeatherDisplay:10.37,2013-04-26 11:29:00,
2013-04-26 05:30:00,58.6,20.9,30.10,NNW,338,3.4,3.4,23,0.00,CLR,,0.00,WeatherDisplay:10.37,2013-04-26 11:30:00,
2013-04-26 05:32:00,58.6,20.9,30.10,North,350,1.1,1.1,23,0.00,CLR,,0.00,WeatherDisplay:10.37,2013-04-26 11:32:00,
2013-04-26 05:33:00,58.5,20.8,30.10,NNE,16,1.1,1.1,23,0.00,CLR,,0.00,WeatherDisplay:10.37,2013-04-26 11:33:00,
2013-04-26 05:34:00,58.5,20.8,30.10,NNE,22,1.1,1.1,23,0.00,CLR,,0.00,WeatherDisplay:10.37,2013-04-26 11:34:00,
2013-04-26 05:35:00,58.5,20.8,30.10,NNE,16,2.3,2.3,23,0.00,CLR,,0.00,WeatherDisplay:10.37,2013-04-26 11:35:00,
2013-04-26 05:37:00,58.5,20.8,30.10,North,355,1.1,0.0,23,0.00,CLR,,0.00,WeatherDisplay:10.37,2013-04-26 11:37:00,
2013-04-26 05:38:00,58.5,20.8,30.10,North,356,1.1,0.0,23,0.00,CLR,,0.00,WeatherDisplay:10.37,2013-04-26 11:38:00,
2013-04-26 05:39:00,58.4,20.7,30.10,NE,48,1.1,1.1,23,0.00,CLR,,0.00,WeatherDisplay:10.37,2013-04-26 11:39:00,
2013-04-26 05:40:00,58.4,20.7,30.10,NNE,17,2.3,2.3,23,0.00,CLR,,0.00,WeatherDisplay:10.37,2013-04-26 11:40:00,
2013-04-26 05:42:00,58.4,20.7,30.10,North,354,3.4,3.4,23,0.00,CLR,,0.00,WeatherDisplay:10.37,2013-04-26 11:42:00,
2013-04-26 05:43:00,58.3,20.6,30.10,North,360,3.4,3.4,23,0.00,CLR,,0.00,WeatherDisplay:10.37,2013-04-26 11:43:00,
2013-04-26 05:44:00,58.3,20.6,30.10,North,354,3.4,3.4,23,0.00,CLR,,0.00,WeatherDisplay:10.37,2013-04-26 11:44:00,
2013-04-26 05:46:00,58.2,20.5,30.10,NNE,26,3.0,3.0,23,0.00,CLR,,0.00,WeatherDisplay:10.37,2013-04-26 11:46:00,
2013-04-26 05:48:00,58.2,20.5,30.10,North,10,3.4,3.4,23,0.00,CLR,,0.00,WeatherDisplay:10.37,2013-04-26 11:48:00,
2013-04-26 05:49:00,58.3,20.6,30.11,North,10,1.1,1.1,23,0.00,CLR,,0.00,WeatherDisplay:10.37,2013-04-26 11:49:00,
2013-04-26 05:51:00,58.2,20.5,30.11,North,353,2.3,2.3,23,0.00,CLR,,0.00,WeatherDisplay:10.37,2013-04-26 11:51:00,
2013-04-26 05:53:00,58.2,20.5,30.11,North,9,3.4,3.4,23,0.00,CLR,,0.00,WeatherDisplay:10.37,2013-04-26 11:53:00,
2013-04-26 05:54:00,58.2,20.5,30.11,North,353,3.4,3.4,23,0.00,CLR,,0.00,WeatherDisplay:10.37,2013-04-26 11:54:00,
2013-04-26 05:55:00,58.1,20.4,30.11,North,5,3.4,3.4,23,0.00,CLR,,0.00,WeatherDisplay:10.37,2013-04-26 11:55:00,
2013-04-26 05:56:00,58.1,20.4,30.11,North,4,2.3,2.3,23,0.00,CLR,,0.00,WeatherDisplay:10.37,2013-04-26 11:56:00,
2013-04-26 05:58:00,58.1,20.4,30.11,NNW,328,1.1,1.1,23,0.00,CLR,,0.00,WeatherDisplay:10.37,2013-04-26 11:58:00,
2013-04-26 05:59:00,58.1,20.4,30.11,North,350,1.1,1.1,23,0.00,CLR,,0.00,WeatherDisplay:10.37,2013-04-26 11:59:00,
2013-04-26 06:01:00,58.0,20.4,30.11,NNE,29,2.3,2.3,23,0.00,CLR,,0.00,WeatherDisplay:10.37,2013-04-26 12:01:00,
2013-04-26 06:02:00,58.0,20.4,30.11,NNE,25,2.3,2.3,23,0.00,CLR,,0.00,WeatherDisplay:10.37,2013-04-26 12:02:00,
2013-04-26 06:03:00,58.1,20.4,30.11,NNE,32,2.3,2.3,23,0.00,CLR,,0.00,WeatherDisplay:10.37,2013-04-26 12:03:00,
2013-04-26 06:04:00,58.0,20.4,30.11,NNE,20,2.3,2.3,23,0.00,CLR,,0.00,WeatherDisplay:10.37,2013-04-26 12:04:00,
2013-04-26 06:05:00,58.1,20.4,30.11,NNW,338,2.3,2.3,23,0.00,CLR,,0.00,WeatherDisplay:10.37,2013-04-26 12:05:00,
2013-04-26 06:06:00,58.1,20.4,30.11,NNE,12,0.0,0.0,23,0.00,CLR,,0.00,WeatherDisplay:10.37,2013-04-26 12:06:00,
2013-04-26 06:07:00,58.0,20.4,30.11,NNE,24,3.0,3.0,23,0.00,CLR,,0.00,WeatherDisplay:10.37,2013-04-26 12:07:00,
2013-04-26 06:08:00,58.1,20.4,30.11,NNW,343,3.4,3.4,23,0.00,CLR,,0.00,WeatherDisplay:10.37,2013-04-26 12:08:00,
2013-04-26 06:09:00,58.1,20.4,30.11,NNW,338,3.4,3.4,23,0.00,CLR,,0.00,WeatherDisplay:10.37,2013-04-26 12:09:00,
2013-04-26 06:10:00,58.1,20.4,30.11,NNW,328,3.4,3.4,23,0.00,CLR,,0.00,WeatherDisplay:10.37,2013-04-26 12:10:00,
2013-04-26 06:11:00,58.1,20.4,30.11,NNW,343,3.4,3.4,23,0.00,CLR,,0.00,WeatherDisplay:10.37,2013-04-26 12:11:00,
2013-04-26 06:12:00,58.2,20.5,30.11,NNW,338,3.4,3.4,23,0.00,CLR,,0.00,WeatherDisplay:10.37,2013-04-26 12:12:00,
2013-04-26 06:13:00,58.2,20.5,30.11,North,1,3.4,3.4,23,0.00,CLR,,0.00,WeatherDisplay:10.37,2013-04-26 12:13:00,
2013-04-26 06:14:00,58.2,20.5,30.11,NNW,334,3.4,3.4,23,0.00,CLR,,0.00,WeatherDisplay:10.37,2013-04-26 12:14:00,
2013-04-26 06:15:00,58.2,20.5,30.11,NNE,17,3.4,3.4,23,0.00,CLR,,0.00,WeatherDisplay:10.37,2013-04-26 12:15:00,
2013-04-26 06:16:00,58.1,20.4,30.11,NNW,342,3.4,3.4,23,0.00,CLR,,0.00,WeatherDisplay:10.37,2013-04-26 12:16:00,
2013-04-26 06:17:00,58.1,20.4,30.11,NNW,342,3.4,3.4,23,0.00,CLR,,0.00,WeatherDisplay:10.37,2013-04-26 12:17:00,
2013-04-26 06:19:00,58.1,20.4,30.11,North,10,3.4,3.4,23,0.00,CLR,,0.00,WeatherDisplay:10.37,2013-04-26 12:19:00,
2013-04-26 06:20:00,58.0,20.4,30.12,NNE,16,4.6,4.6,23,0.00,CLR,,0.00,WeatherDisplay:10.37,2013-04-26 12:20:00,
2013-04-26 06:22:00,58.0,20.4,30.12,NNE,15,3.4,3.4,23,0.00,CLR,,0.00,WeatherDisplay:10.37,2013-04-26 12:22:00,
2013-04-26 06:24:00,57.9,20.3,30.12,North,11,3.4,3.4,23,0.00,CLR,,0.00,WeatherDisplay:10.37,2013-04-26 12:24:00,
2013-04-26 06:25:00,57.9,20.3,30.12,NNE,17,3.4,3.4,23,0.00,CLR,,0.00,WeatherDisplay:10.37,2013-04-26 12:25:00,
2013-04-26 06:27:00,58.0,20.4,30.12,NNE,18,4.6,4.6,23,0.00,CLR,,0.00,WeatherDisplay:10.37,2013-04-26 12:27:00,
2013-04-26 06:29:00,57.9,20.3,30.12,NE,36,3.4,3.4,23,0.00,CLR,,0.00,WeatherDisplay:10.37,2013-04-26 12:29:00,
2013-04-26 06:30:00,57.9,20.3,30.12,NNE,27,3.4,3.4,23,0.00,CLR,,0.00,WeatherDisplay:10.37,2013-04-26 12:30:00,
2013-04-26 06:32:00,57.9,20.3,30.12,North,3,3.4,3.4,23,0.00,CLR,,0.00,WeatherDisplay:10.37,2013-04-26 12:32:00,
2013-04-26 06:33:00,57.9,20.3,30.12,NNW,340,3.4,3.4,23,0.00,CLR,,0.00,WeatherDisplay:10.37,2013-04-26 12:33:00,
2013-04-26 06:34:00,57.9,20.3,30.12,NNE,30,3.4,3.4,23,0.00,CLR,,0.00,WeatherDisplay:10.37,2013-04-26 12:34:00,
2013-04-26 06:35:00,58.0,20.4,30.12,NNE,18,3.4,3.4,23,0.00,CLR,,0.00,WeatherDisplay:10.37,2013-04-26 12:35:00,
2013-04-26 06:37:00,58.1,20.4,30.12,NNE,24,2.3,2.3,23,0.00,CLR,,0.00,WeatherDisplay:10.37,2013-04-26 12:37:00,
2013-04-26 06:39:00,58.1,20.4,30.12,NE,36,3.4,3.4,23,0.00,CLR,,0.00,WeatherDisplay:10.37,2013-04-26 12:39:00,
2013-04-26 06:40:00,58.1,20.4,30.12,North,354,3.0,3.0,23,0.00,CLR,,0.00,WeatherDisplay:10.37,2013-04-26 12:40:00,
2013-04-26 06:43:00,58.1,20.4,30.12,NNE,20,3.4,3.4,23,0.00,CLR,,0.00,WeatherDisplay:10.37,2013-04-26 12:43:00,
2013-04-26 06:44:00,58.2,20.5,30.12,NNE,30,3.4,3.4,23,0.00,CLR,,0.00,WeatherDisplay:10.37,2013-04-26 12:44:00,
2013-04-26 06:45:00,58.2,20.5,30.12,NNE,25,2.3,2.3,23,0.00,CLR,,0.00,WeatherDisplay:10.37,2013-04-26 12:45:00,
2013-04-26 06:48:00,58.2,20.5,30.12,NNE,15,2.3,2.3,23,0.00,CLR,,0.00,WeatherDisplay:10.37,2013-04-26 12:48:00,
2013-04-26 06:49:00,58.1,20.4,30.12,NNW,339,2.3,2.3,23,0.00,CLR,,0.00,WeatherDisplay:10.37,2013-04-26 12:49:00,
2013-04-26 06:50:00,58.1,20.4,30.12,NNW,342,3.4,3.4,23,0.00,CLR,,0.00,WeatherDisplay:10.37,2013-04-26 12:50:00,
2013-04-26 06:53:00,58.0,20.4,30.12,NNE,16,1.0,0.0,23,0.00,CLR,,0.00,WeatherDisplay:10.37,2013-04-26 12:53:00,
2013-04-26 06:54:00,58.0,20.4,30.12,NNE,15,3.4,3.4,23,0.00,CLR,,0.00,WeatherDisplay:10.37,2013-04-26 12:54:00,
2013-04-26 06:55:00,58.1,20.4,30.12,North,350,3.4,3.4,23,0.00,CLR,,0.00,WeatherDisplay:10.37,2013-04-26 12:55:00,
2013-04-26 06:58:00,58.1,20.4,30.12,North,10,1.1,1.1,23,0.00,CLR,,0.00,WeatherDisplay:10.37,2013-04-26 12:58:00,
2013-04-26 06:59:00,58.1,20.4,30.12,NNW,341,2.3,2.3,23,0.00,CLR,,0.00,WeatherDisplay:10.37,2013-04-26 12:59:00,
2013-04-26 07:00:00,58.1,20.4,30.12,NNW,342,2.3,2.3,23,0.00,CLR,,0.00,WeatherDisplay:10.37,2013-04-26 13:00:00,
2013-04-26 07:01:00,58.1,20.4,30.12,NNW,338,1.1,1.1,23,0.00,CLR,,0.00,WeatherDisplay:10.37,2013-04-26 13:01:00,
2013-04-26 07:03:00,58.1,20.4,30.12,NNE,22,2.3,2.3,23,0.00,CLR,,0.00,WeatherDisplay:10.37,2013-04-26 13:03:00,
2013-04-26 07:05:00,58.1,20.4,30.12,NNE,23,2.3,2.3,23,0.00,CLR,,0.00,WeatherDisplay:10.37,2013-04-26 13:05:00,
2013-04-26 07:06:00,58.1,20.4,30.12,NNE,15,2.3,2.3,23,0.00,CLR,,0.00,WeatherDisplay:10.37,2013-04-26 13:06:00,
2013-04-26 07:08:00,58.1,20.4,30.12,North,351,2.3,2.3,23,0.00,CLR,,0.00,WeatherDisplay:10.37,2013-04-26 13:08:00,
2013-04-26 07:10:00,58.0,20.4,30.12,North,10,2.3,2.3,23,0.00,CLR,,0.00,WeatherDisplay:10.37,2013-04-26 13:10:00,
2013-04-26 07:11:00,58.0,20.4,30.13,NE,38,2.3,2.3,23,0.00,CLR,,0.00,WeatherDisplay:10.37,2013-04-26 13:11:00,
2013-04-26 07:13:00,58.0,20.4,30.13,NNE,12,0.0,0.0,23,0.00,CLR,,0.00,WeatherDisplay:10.37,2013-04-26 13:13:00,
2013-04-26 07:15:00,58.0,20.4,30.13,NNE,25,2.3,2.3,23,0.00,CLR,,0.00,WeatherDisplay:10.37,2013-04-26 13:15:00,
2013-04-26 07:16:00,58.0,20.4,30.13,NE,47,2.3,2.3,23,0.00,CLR,,0.00,WeatherDisplay:10.37,2013-04-26 13:16:00,
2013-04-26 07:19:00,58.0,21.4,30.13,North,359,0.0,0.0,24,0.00,CLR,,0.00,WeatherDisplay:10.37,2013-04-26 13:19:00,
2013-04-26 07:20:00,58.1,21.4,30.13,North,360,1.1,0.0,24,0.00,CLR,,0.00,WeatherDisplay:10.37,2013-04-26 13:20:00,
2013-04-26 07:21:00,58.2,21.5,30.14,North,360,1.1,0.0,24,0.00,CLR,,0.00,WeatherDisplay:10.37,2013-04-26 13:21:00,
2013-04-26 07:24:00,58.6,20.9,30.14,North,3,2.3,2.3,23,0.00,CLR,,0.00,WeatherDisplay:10.37,2013-04-26 13:24:00,
2013-04-26 07:25:00,58.8,21.0,30.14,NNE,18,3.4,3.4,23,0.00,CLR,,0.00,WeatherDisplay:10.37,2013-04-26 13:25:00,
2013-04-26 07:26:00,58.9,21.1,30.14,NNE,19,3.4,3.4,23,0.00,CLR,,0.00,WeatherDisplay:10.37,2013-04-26 13:26:00,
2013-04-26 07:29:00,59.2,21.4,30.14,NNE,22,1.1,1.1,23,0.00,CLR,,0.00,WeatherDisplay:10.37,2013-04-26 13:29:00,
2013-04-26 07:31:00,59.3,21.5,30.14,NNE,18,3.0,3.0,23,0.00,CLR,,0.00,WeatherDisplay:10.37,2013-04-26 13:31:00,
2013-04-26 07:35:00,59.6,21.7,30.14,NW,312,6.9,6.9,23,0.00,CLR,,0.00,WeatherDisplay:10.37,2013-04-26 13:35:00,
2013-04-26 07:36:00,59.7,21.8,30.14,North,360,3.4,3.4,23,0.00,CLR,,0.00,WeatherDisplay:10.37,2013-04-26 13:36:00,
2013-04-26 07:40:00,60.2,22.2,30.15,North,358,3.4,3.4,23,0.00,CLR,,0.00,WeatherDisplay:10.37,2013-04-26 13:40:00,
2013-04-26 07:41:00,60.3,22.3,30.14,NW,305,2.3,2.3,23,0.00,CLR,,0.00,WeatherDisplay:10.37,2013-04-26 13:41:00,
2013-04-26 07:42:00,60.4,22.4,30.14,NW,309,2.3,2.3,23,0.00,CLR,,0.00,WeatherDisplay:10.37,2013-04-26 13:42:00,
2013-04-26 07:45:00,60.6,22.6,30.15,WNW,302,3.4,3.4,23,0.00,CLR,,0.00,WeatherDisplay:10.37,2013-04-26 13:45:00,
2013-04-26 07:46:00,60.8,22.7,30.15,North,358,1.1,1.1,23,0.00,CLR,,0.00,WeatherDisplay:10.37,2013-04-26 13:46:00,
2013-04-26 07:47:00,60.8,22.7,30.15,WNW,297,1.1,1.1,23,0.00,CLR,,0.00,WeatherDisplay:10.37,2013-04-26 13:47:00,
2013-04-26 07:50:00,61.1,21.9,30.15,NW,305,1.1,1.1,22,0.00,CLR,,0.00,WeatherDisplay:10.37,2013-04-26 13:50:00,
2013-04-26 07:51:00,61.2,22.0,30.15,WNW,290,1.1,1.1,22,0.00,CLR,,0.00,WeatherDisplay:10.37,2013-04-26 13:51:00,
2013-04-26 07:52:00,61.2,22.0,30.15,NW,314,1.1,1.1,22,0.00,CLR,,0.00,WeatherDisplay:10.37,2013-04-26 13:52:00,
2013-04-26 07:55:00,61.4,22.2,30.15,NW,324,1.1,1.1,22,0.00,CLR,,0.00,WeatherDisplay:10.37,2013-04-26 13:55:00,
2013-04-26 07:57:00,61.5,22.3,30.15,NW,325,3.4,3.4,22,0.00,CLR,,0.00,WeatherDisplay:10.37,2013-04-26 13:57:00,
2013-04-26 08:00:00,61.7,21.3,30.15,WNW,288,3.4,3.4,21,0.00,CLR,,0.00,WeatherDisplay:10.37,2013-04-26 14:00:00,
2013-04-26 08:02:00,61.8,21.4,30.16,West,264,3.4,3.4,21,0.00,CLR,,0.00,WeatherDisplay:10.37,2013-04-26 14:02:00,
2013-04-26 08:05:00,61.9,21.5,30.16,West,281,6.0,6.0,21,0.00,CLR,,0.00,WeatherDisplay:10.37,2013-04-26 14:05:00,
2013-04-26 08:07:00,62.0,20.4,30.16,NW,307,6.9,6.9,20,0.00,CLR,,0.00,WeatherDisplay:10.37,2013-04-26 14:07:00,
2013-04-26 08:08:00,62.0,21.6,30.16,WNW,292,6.9,6.9,21,0.00,CLR,,0.00,WeatherDisplay:10.37,2013-04-26 14:08:00,
2013-04-26 08:10:00,62.2,21.7,30.16,WNW,290,3.4,3.4,21,0.00,CLR,,0.00,WeatherDisplay:10.37,2013-04-26 14:10:00,
2013-04-26 08:12:00,62.3,20.7,30.16,WNW,302,5.8,5.8,20,0.00,CLR,,0.00,WeatherDisplay:10.37,2013-04-26 14:12:00,
2013-04-26 08:13:00,62.3,20.7,30.16,West,266,5.8,5.8,20,0.00,CLR,,0.00,WeatherDisplay:10.37,2013-04-26 14:13:00,
2013-04-26 08:16:00,62.5,20.8,30.16,West,274,3.4,3.4,20,0.00,CLR,,0.00,WeatherDisplay:10.37,2013-04-26 14:16:00,
2013-04-26 08:17:00,62.5,20.8,30.16,WNW,284,3.4,3.4,20,0.00,CLR,,0.00,WeatherDisplay:10.37,2013-04-26 14:17:00,
2013-04-26 08:18:00,62.6,22.1,30.16,WNW,302,3.4,3.4,21,0.00,CLR,,0.00,WeatherDisplay:10.37,2013-04-26 14:18:00,
2013-04-26 08:21:00,62.8,21.1,30.16,NW,309,4.6,4.6,20,0.00,CLR,,0.00,WeatherDisplay:10.37,2013-04-26 14:21:00,
2013-04-26 08:23:00,62.8,19.9,30.16,West,273,5.8,5.8,19,0.00,CLR,,0.00,WeatherDisplay:10.37,2013-04-26 14:23:00,
2013-04-26 08:26:00,63.0,21.2,30.16,NW,309,3.4,3.4,20,0.00,CLR,,0.00,WeatherDisplay:10.37,2013-04-26 14:26:00,
2013-04-26 08:28:00,63.2,21.4,30.16,WNW,293,3.4,3.4,20,0.00,CLR,,0.00,WeatherDisplay:10.37,2013-04-26 14:28:00,
2013-04-26 08:29:00,63.2,21.4,30.16,NW,321,3.4,3.4,20,0.00,CLR,,0.00,WeatherDisplay:10.37,2013-04-26 14:29:00,
2013-04-26 08:30:00,63.3,21.5,30.16,West,273,3.4,3.4,20,0.00,CLR,,0.00,WeatherDisplay:10.37,2013-04-26 14:30:00,
2013-04-26 08:32:00,63.3,20.3,30.16,NW,312,5.8,5.8,19,0.00,CLR,,0.00,WeatherDisplay:10.37,2013-04-26 14:32:00,
2013-04-26 08:33:00,63.2,20.2,30.16,WNW,292,4.6,4.6,19,0.00,CLR,,0.00,WeatherDisplay:10.37,2013-04-26 14:33:00,
2013-04-26 08:34:00,63.2,20.2,30.16,NW,309,4.6,4.6,19,0.00,CLR,,0.00,WeatherDisplay:10.37,2013-04-26 14:34:00,
2013-04-26 08:35:00,63.3,20.3,30.16,North,354,3.4,3.4,19,0.00,CLR,,0.00,WeatherDisplay:10.37,2013-04-26 14:35:00,
2013-04-26 08:37:00,63.3,20.3,30.16,WNW,284,5.8,5.8,19,0.00,CLR,,0.00,WeatherDisplay:10.37,2013-04-26 14:37:00,
2013-04-26 08:38:00,63.4,20.4,30.16,West,278,4.6,4.6,19,0.00,CLR,,0.00,WeatherDisplay:10.37,2013-04-26 14:38:00,
2013-04-26 08:39:00,63.4,20.4,30.16,NW,315,4.6,4.6,19,0.00,CLR,,0.00,WeatherDisplay:10.37,2013-04-26 14:39:00,
2013-04-26 08:40:00,63.5,20.5,30.16,West,280,3.4,3.4,19,0.00,CLR,,0.00,WeatherDisplay:10.37,2013-04-26 14:40:00,
2013-04-26 08:42:00,63.6,21.7,30.17,NW,309,3.4,3.4,20,0.00,CLR,,0.00,WeatherDisplay:10.37,2013-04-26 14:42:00,
2013-04-26 08:43:00,63.6,20.5,30.17,NW,309,10.3,10.3,19,0.00,CLR,,0.00,WeatherDisplay:10.37,2013-04-26 14:43:00,
2013-04-26 08:44:00,63.6,20.5,30.17,WNW,301,3.0,10.0,19,0.00,CLR,,0.00,WeatherDisplay:10.37,2013-04-26 14:44:00,
2013-04-26 08:46:00,63.4,20.4,30.17,NW,305,4.6,4.6,19,0.00,CLR,,0.00,WeatherDisplay:10.37,2013-04-26 14:46:00,
2013-04-26 08:47:00,63.4,20.4,30.17,NW,316,5.8,5.8,19,0.00,CLR,,0.00,WeatherDisplay:10.37,2013-04-26 14:47:00,
2013-04-26 08:48:00,63.5,20.5,30.17,WNW,293,3.4,3.4,19,0.00,CLR,,0.00,WeatherDisplay:10.37,2013-04-26 14:48:00,
2013-04-26 08:50:00,63.5,20.5,30.17,NNW,345,3.4,3.4,19,0.00,CLR,,0.00,WeatherDisplay:10.37,2013-04-26 14:50:00,
2013-04-26 08:51:00,63.6,20.5,30.17,WNW,285,3.4,3.4,19,0.00,CLR,,0.00,WeatherDisplay:10.37,2013-04-26 14:51:00,
2013-04-26 08:52:00,63.7,20.6,30.17,WNW,284,5.0,5.0,19,0.00,CLR,,0.00,WeatherDisplay:10.37,2013-04-26 14:52:00,
2013-04-26 08:53:00,63.7,20.6,30.17,WNW,295,3.4,3.4,19,0.00,CLR,,0.00,WeatherDisplay:10.37,2013-04-26 14:53:00,
2013-04-26 08:55:00,63.7,20.6,30.17,NW,311,3.4,3.4,19,0.00,CLR,,0.00,WeatherDisplay:10.37,2013-04-26 14:55:00,
2013-04-26 08:56:00,63.8,20.7,30.17,WNW,302,3.4,3.4,19,0.00,CLR,,0.00,WeatherDisplay:10.37,2013-04-26 14:56:00,
2013-04-26 08:58:00,63.9,20.8,30.17,North,353,4.6,4.6,19,0.00,CLR,,0.00,WeatherDisplay:10.37,2013-04-26 14:58:00,
2013-04-26 08:59:00,64.0,19.6,30.17,NNW,331,4.6,4.6,18,0.00,CLR,,0.00,WeatherDisplay:10.37,2013-04-26 14:59:00,
2013-04-26 09:00:00,64.0,19.6,30.17,NNW,345,4.0,4.0,18,0.00,CLR,,0.00,WeatherDisplay:10.37,2013-04-26 15:00:00,
2013-04-26 09:01:00,64.0,19.6,30.17,WNW,288,6.9,6.9,18,0.00,CLR,,0.00,WeatherDisplay:10.37,2013-04-26 15:01:00,
2013-04-26 09:03:00,64.0,19.6,30.17,NW,309,5.8,5.8,18,0.00,CLR,,0.00,WeatherDisplay:10.37,2013-04-26 15:03:00,
2013-04-26 09:04:00,64.1,19.7,30.17,WNW,288,6.0,6.0,18,0.00,CLR,,0.00,WeatherDisplay:10.37,2013-04-26 15:04:00,
2013-04-26 09:05:00,64.0,19.6,30.17,NW,307,5.8,5.8,18,0.00,CLR,,0.00,WeatherDisplay:10.37,2013-04-26 15:05:00,
2013-04-26 09:07:00,64.0,19.6,30.17,NNW,338,8.1,8.1,18,0.00,CLR,,0.00,WeatherDisplay:10.37,2013-04-26 15:07:00,
2013-04-26 09:08:00,64.1,19.7,30.17,WSW,250,5.8,5.8,18,0.00,CLR,,0.00,WeatherDisplay:10.37,2013-04-26 15:08:00,
2013-04-26 09:09:00,64.2,19.8,30.17,WNW,290,3.4,3.4,18,0.00,CLR,,0.00,WeatherDisplay:10.37,2013-04-26 15:09:00,
2013-04-26 09:10:00,64.4,19.9,30.17,NW,314,4.6,4.6,18,0.00,CLR,,0.00,WeatherDisplay:10.37,2013-04-26 15:10:00,
2013-04-26 09:12:00,64.6,20.1,30.17,NNW,340,5.0,5.0,18,0.00,CLR,,0.00,WeatherDisplay:10.37,2013-04-26 15:12:00,
2013-04-26 09:13:00,64.7,20.2,30.17,West,260,4.6,4.6,18,0.00,CLR,,0.00,WeatherDisplay:10.37,2013-04-26 15:13:00,
2013-04-26 09:14:00,64.7,20.2,30.17,WNW,294,3.4,3.4,18,0.00,CLR,,0.00,WeatherDisplay:10.37,2013-04-26 15:14:00,
2013-04-26 09:15:00,64.8,20.2,30.17,WNW,288,3.4,3.4,18,0.00,CLR,,0.00,WeatherDisplay:10.37,2013-04-26 15:15:00,
2013-04-26 09:17:00,64.9,20.3,30.17,NNW,347,5.8,5.8,18,0.00,CLR,,0.00,WeatherDisplay:10.37,2013-04-26 15:17:00,
2013-04-26 09:18:00,64.9,20.3,30.17,NW,305,3.4,3.4,18,0.00,CLR,,0.00,WeatherDisplay:10.37,2013-04-26 15:18:00,
2013-04-26 09:19:00,64.9,20.3,30.17,WNW,298,5.0,5.0,18,0.00,CLR,,0.00,WeatherDisplay:10.37,2013-04-26 15:19:00,
2013-04-26 09:20:00,64.9,20.3,30.17,NW,312,5.0,5.0,18,0.00,CLR,,0.00,WeatherDisplay:10.37,2013-04-26 15:20:00,
2013-04-26 09:22:00,64.8,21.5,30.17,WNW,301,4.6,4.6,19,0.00,CLR,,0.00,WeatherDisplay:10.37,2013-04-26 15:22:00,
2013-04-26 09:23:00,64.9,20.3,30.17,NW,305,6.0,6.0,18,0.00,CLR,,0.00,WeatherDisplay:10.37,2013-04-26 15:23:00,
2013-04-26 09:24:00,64.9,20.3,30.17,WNW,302,5.8,5.8,18,0.00,CLR,,0.00,WeatherDisplay:10.37,2013-04-26 15:24:00,
2013-04-26 09:26:00,65.0,20.4,30.17,WSW,257,5.8,5.8,18,0.00,CLR,,0.00,WeatherDisplay:10.37,2013-04-26 15:26:00,
2013-04-26 09:27:00,64.9,20.3,30.17,NW,316,5.8,5.8,18,0.00,CLR,,0.00,WeatherDisplay:10.37,2013-04-26 15:27:00,
2013-04-26 09:28:00,64.9,20.3,30.17,NW,304,5.8,5.8,18,0.00,CLR,,0.00,WeatherDisplay:10.37,2013-04-26 15:28:00,
2013-04-26 09:29:00,65.0,21.7,30.17,NW,314,4.0,4.0,19,0.00,CLR,,0.00,WeatherDisplay:10.37,2013-04-26 15:29:00,
2013-04-26 09:31:00,65.1,20.5,30.17,North,356,5.8,5.8,18,0.00,CLR,,0.00,WeatherDisplay:10.37,2013-04-26 15:31:00,
2013-04-26 09:32:00,65.2,20.6,30.18,North,349,6.9,6.9,18,0.00,CLR,,0.00,WeatherDisplay:10.37,2013-04-26 15:32:00,
2013-04-26 09:33:00,65.2,20.6,30.18,WNW,302,6.9,6.9,18,0.00,CLR,,0.00,WeatherDisplay:10.37,2013-04-26 15:33:00,
2013-04-26 09:34:00,65.3,20.7,30.18,WNW,295,4.6,4.6,18,0.00,CLR,,0.00,WeatherDisplay:10.37,2013-04-26 15:34:00,
2013-04-26 09:35:00,65.3,21.9,30.18,West,270,4.6,4.6,19,0.00,CLR,,0.00,WeatherDisplay:10.37,2013-04-26 15:35:00,
2013-04-26 09:36:00,65.4,20.7,30.18,NNW,330,4.0,4.0,18,0.00,CLR,,0.00,WeatherDisplay:10.37,2013-04-26 15:36:00,
2013-04-26 09:38:00,65.5,20.8,30.18,North,356,9.2,9.2,18,0.00,CLR,,0.00,WeatherDisplay:10.37,2013-04-26 15:38:00,
2013-04-26 09:39:00,65.5,20.8,30.18,NW,314,4.6,4.6,18,0.00,CLR,,0.00,WeatherDisplay:10.37,2013-04-26 15:39:00,
2013-04-26 09:40:00,65.6,20.9,30.18,NNW,331,3.4,3.4,18,0.00,CLR,,0.00,WeatherDisplay:10.37,2013-04-26 15:40:00,
2013-04-26 09:41:00,65.6,20.9,30.18,North,1,3.4,3.4,18,0.00,CLR,,0.00,WeatherDisplay:10.37,2013-04-26 15:41:00,
2013-04-26 09:43:00,66.0,22.5,30.18,NNW,333,4.6,4.6,19,0.00,CLR,,0.00,WeatherDisplay:10.37,2013-04-26 15:43:00,
2013-04-26 09:45:00,66.3,22.8,30.18,NW,316,3.0,3.0,19,0.00,CLR,,0.00,WeatherDisplay:10.37,2013-04-26 15:45:00,
2013-04-26 09:46:00,66.5,21.6,30.18,WSW,257,3.4,3.4,18,0.00,CLR,,0.00,WeatherDisplay:10.37,2013-04-26 15:46:00,
2013-04-26 09:48:00,66.6,21.7,30.18,NW,305,4.0,4.0,18,0.00,CLR,,0.00,WeatherDisplay:10.37,2013-04-26 15:48:00,
2013-04-26 09:50:00,66.6,21.7,30.18,NW,316,5.8,5.8,18,0.00,CLR,,0.00,WeatherDisplay:10.37,2013-04-26 15:50:00,
2013-04-26 09:51:00,66.8,21.9,30.18,NW,306,4.0,4.0,18,0.00,CLR,,0.00,WeatherDisplay:10.37,2013-04-26 15:51:00,
2013-04-26 09:53:00,66.9,20.6,30.18,WNW,299,5.0,5.0,17,0.00,CLR,,0.00,WeatherDisplay:10.37,2013-04-26 15:53:00,
2013-04-26 09:54:00,67.0,20.7,30.18,NNW,339,3.4,3.4,17,0.00,CLR,,0.00,WeatherDisplay:10.37,2013-04-26 15:54:00,
2013-04-26 09:55:00,67.0,20.7,30.18,NW,311,5.8,5.8,17,0.00,CLR,,0.00,WeatherDisplay:10.37,2013-04-26 15:55:00,
2013-04-26 09:56:00,67.0,20.7,30.18,WSW,255,4.6,4.6,17,0.00,CLR,,0.00,WeatherDisplay:10.37,2013-04-26 15:56:00,
2013-04-26 09:59:00,66.9,20.6,30.18,West,273,3.4,3.4,17,0.00,CLR,,0.00,WeatherDisplay:10.37,2013-04-26 15:59:00,
2013-04-26 10:00:00,66.8,20.5,30.18,WNW,287,4.0,4.0,17,0.00,CLR,,0.00,WeatherDisplay:10.37,2013-04-26 16:00:00,
2013-04-26 10:01:00,66.8,19.1,30.18,WNW,295,5.8,5.8,16,0.00,CLR,,0.00,WeatherDisplay:10.37,2013-04-26 16:01:00,
2013-04-26 10:02:00,66.8,19.1,30.18,NW,324,6.0,6.0,16,0.00,CLR,,0.00,WeatherDisplay:10.37,2013-04-26 16:02:00,
2013-04-26 10:04:00,67.0,19.3,30.18,WNW,302,8.1,8.1,16,0.00,CLR,,0.00,WeatherDisplay:10.37,2013-04-26 16:04:00,
2013-04-26 10:05:00,67.0,19.3,30.18,North,10,8.1,8.1,16,0.00,CLR,,0.00,WeatherDisplay:10.37,2013-04-26 16:05:00,
2013-04-26 10:06:00,67.2,17.9,30.18,NNE,17,7.0,7.0,15,0.00,CLR,,0.00,WeatherDisplay:10.37,2013-04-26 16:06:00,
2013-04-26 10:07:00,67.1,17.8,30.18,NNE,28,6.9,6.9,15,0.00,CLR,,0.00,WeatherDisplay:10.37,2013-04-26 16:07:00,
2013-04-26 10:09:00,67.3,19.5,30.18,NW,313,4.6,4.6,16,0.00,CLR,,0.00,WeatherDisplay:10.37,2013-04-26 16:09:00,
2013-04-26 10:10:00,67.5,19.7,30.18,NW,310,2.3,2.3,16,0.00,CLR,,0.00,WeatherDisplay:10.37,2013-04-26 16:10:00,
2013-04-26 10:12:00,67.7,18.3,30.18,NW,318,6.9,6.9,15,0.00,CLR,,0.00,WeatherDisplay:10.37,2013-04-26 16:12:00,
2013-04-26 10:14:00,67.5,18.2,30.18,WNW,285,6.9,6.9,15,0.00,CLR,,0.00,WeatherDisplay:10.37,2013-04-26 16:14:00,
2013-04-26 10:15:00,67.6,18.3,30.18,NNE,20,6.9,6.9,15,0.00,CLR,,0.00,WeatherDisplay:10.37,2013-04-26 16:15:00,
2013-04-26 10:17:00,67.8,18.4,30.18,NW,309,4.6,4.6,15,0.00,CLR,,0.00,WeatherDisplay:10.37,2013-04-26 16:17:00,
2013-04-26 10:18:00,67.8,18.4,30.18,NNW,330,4.6,4.6,15,0.00,CLR,,0.00,WeatherDisplay:10.37,2013-04-26 16:18:00,
2013-04-26 10:19:00,67.8,18.4,30.18,NNW,333,3.0,7.0,15,0.00,CLR,,0.00,WeatherDisplay:10.37,2013-04-26 16:19:00,
2013-04-26 10:21:00,67.8,18.4,30.18,West,262,4.6,4.6,15,0.00,CLR,,0.00,WeatherDisplay:10.37,2013-04-26 16:21:00,
2013-04-26 10:22:00,67.9,16.9,30.18,WSW,257,4.6,4.6,14,0.00,CLR,,0.00,WeatherDisplay:10.37,2013-04-26 16:22:00,
2013-04-26 10:23:00,67.9,16.9,30.18,West,265,2.3,2.3,14,0.00,CLR,,0.00,WeatherDisplay:10.37,2013-04-26 16:23:00,
2013-04-26 10:24:00,68.2,18.7,30.18,North,354,7.0,7.0,15,0.00,CLR,,0.00,WeatherDisplay:10.37,2013-04-26 16:24:00,
2013-04-26 10:25:00,68.2,18.7,30.18,North,360,5.0,5.0,15,0.00,CLR,,0.00,WeatherDisplay:10.37,2013-04-26 16:25:00,
2013-04-26 10:26:00,68.4,18.9,30.18,WNW,293,5.8,5.8,15,0.00,CLR,,0.00,WeatherDisplay:10.37,2013-04-26 16:26:00,
2013-04-26 10:27:00,68.4,18.9,30.18,WNW,293,6.0,6.0,15,0.00,CLR,,0.00,WeatherDisplay:10.37,2013-04-26 16:27:00,
2013-04-26 10:28:00,68.4,17.3,30.18,WNW,302,4.6,4.6,14,0.00,CLR,,0.00,WeatherDisplay:10.37,2013-04-26 16:28:00,
2013-04-26 10:30:00,68.3,17.2,30.18,West,266,4.0,4.0,14,0.00,CLR,,0.00,WeatherDisplay:10.37,2013-04-26 16:30:00,
2013-04-26 10:32:00,68.2,17.1,30.18,NNW,337,3.4,3.4,14,0.00,CLR,,0.00,WeatherDisplay:10.37,2013-04-26 16:32:00,
2013-04-26 10:33:00,68.2,17.1,30.18,WNW,300,2.3,2.3,14,0.00,CLR,,0.00,WeatherDisplay:10.37,2013-04-26 16:33:00,
2013-04-26 10:35:00,68.4,17.3,30.18,NE,42,2.0,2.1,14,0.00,CLR,,0.00,WeatherDisplay:10.37,2013-04-26 16:35:00,
2013-04-26 10:37:00,68.6,9.8,30.18,NNE,27,6.0,6.0,10,0.00,CLR,,0.00,WeatherDisplay:10.37,2013-04-26 16:37:00,
2013-04-26 10:38:00,68.7,17.5,30.18,NE,37,6.9,6.9,14,0.00,CLR,,0.00,WeatherDisplay:10.37,2013-04-26 16:38:00,
2013-04-26 10:40:00,68.9,17.7,30.18,NW,310,3.4,3.4,14,0.00,CLR,,0.00,WeatherDisplay:10.37,2013-04-26 16:40:00,
2013-04-26 10:43:00,69.0,10.1,30.18,WNW,284,8.1,8.1,10,0.00,CLR,,0.00,WeatherDisplay:10.37,2013-04-26 16:43:00,
2013-04-26 10:45:00,69.3,10.3,30.17,NW,317,3.4,3.4,10,0.00,CLR,,0.00,WeatherDisplay:10.37,2013-04-26 16:45:00,
2013-04-26 10:46:00,69.3,10.3,30.17,WSW,256,3.4,3.4,10,0.00,CLR,,0.00,WeatherDisplay:10.37,2013-04-26 16:46:00,
2013-04-26 10:48:00,69.5,14.6,30.18,NW,311,5.0,5.0,12,0.00,CLR,,0.00,WeatherDisplay:10.37,2013-04-26 16:48:00,
2013-04-26 10:49:00,69.4,14.5,30.18,NW,309,6.9,6.9,12,0.00,CLR,,0.00,WeatherDisplay:10.37,2013-04-26 16:49:00,
2013-04-26 10:51:00,69.6,14.7,30.18,NE,37,3.0,3.0,12,0.00,CLR,,0.00,WeatherDisplay:10.37,2013-04-26 16:51:00,
2013-04-26 10:52:00,69.8,10.7,30.17,North,355,4.0,4.0,10,0.00,CLR,,0.00,WeatherDisplay:10.37,2013-04-26 16:52:00,
2013-04-26 10:53:00,69.9,14.9,30.17,NW,311,5.8,5.8,12,0.00,CLR,,0.00,WeatherDisplay:10.37,2013-04-26 16:53:00,
2013-04-26 10:54:00,70.0,15.0,30.17,NW,318,5.8,5.8,12,0.00,CLR,,0.00,WeatherDisplay:10.37,2013-04-26 16:54:00,
2013-04-26 10:56:00,70.1,10.9,30.17,NW,323,6.9,6.9,10,0.00,CLR,,0.00,WeatherDisplay:10.37,2013-04-26 16:56:00,
2013-04-26 10:57:00,70.1,15.1,30.18,West,281,5.8,5.8,12,0.00,CLR,,0.00,WeatherDisplay:10.37,2013-04-26 16:57:00,
2013-04-26 10:59:00,70.3,15.2,30.18,NNW,337,2.3,2.3,12,0.00,CLR,,0.00,WeatherDisplay:10.37,2013-04-26 16:59:00,
2013-04-26 11:01:00,70.6,15.5,30.17,WNW,282,3.4,3.4,12,0.00,CLR,,0.00,WeatherDisplay:10.37,2013-04-26 17:01:00,
2013-04-26 11:02:00,70.7,15.5,30.17,North,359,5.0,5.0,12,0.00,CLR,,0.00,WeatherDisplay:10.37,2013-04-26 17:02:00,
2013-04-26 11:04:00,70.8,15.6,30.17,NW,306,6.9,6.9,12,0.00,CLR,,0.00,WeatherDisplay:10.37,2013-04-26 17:04:00,
2013-04-26 11:05:00,70.8,15.6,30.17,NW,318,5.8,5.8,12,0.00,CLR,,0.00,WeatherDisplay:10.37,2013-04-26 17:05:00,
2013-04-26 11:06:00,70.8,13.6,30.17,NW,325,6.0,6.0,11,0.00,CLR,,0.00,WeatherDisplay:10.37,2013-04-26 17:06:00,
2013-04-26 11:07:00,70.8,13.6,30.17,NNW,343,6.9,6.9,11,0.00,CLR,,0.00,WeatherDisplay:10.37,2013-04-26 17:07:00,
2013-04-26 11:09:00,70.8,15.6,30.17,North,9,4.0,4.0,12,0.00,CLR,,0.00,WeatherDisplay:10.37,2013-04-26 17:09:00,
2013-04-26 11:10:00,70.9,15.7,30.17,North,8,3.4,3.4,12,0.00,CLR,,0.00,WeatherDisplay:10.37,2013-04-26 17:10:00,
2013-04-26 11:11:00,71.0,15.8,30.17,North,356,3.4,3.4,12,0.00,CLR,,0.00,WeatherDisplay:10.37,2013-04-26 17:11:00,
2013-04-26 11:13:00,71.1,15.9,30.17,NNW,328,3.4,3.4,12,0.00,CLR,,0.00,WeatherDisplay:10.37,2013-04-26 17:13:00,
2013-04-26 11:14:00,71.3,16.0,30.17,NW,308,3.0,3.0,12,0.00,CLR,,0.00,WeatherDisplay:10.37,2013-04-26 17:14:00,
2013-04-26 11:15:00,71.4,16.1,30.17,WNW,288,5.0,5.0,12,0.00,CLR,,0.00,WeatherDisplay:10.37,2013-04-26 17:15:00,
2013-04-26 11:16:00,71.4,14.1,30.17,WNW,285,3.4,3.4,11,0.00,CLR,,0.00,WeatherDisplay:10.37,2013-04-26 17:16:00,
2013-04-26 11:18:00,71.4,16.1,30.17,NNE,16,5.8,5.8,12,0.00,CLR,,0.00,WeatherDisplay:10.37,2013-04-26 17:18:00,
2013-04-26 11:19:00,71.5,16.2,30.17,NNW,332,5.8,5.8,12,0.00,CLR,,0.00,WeatherDisplay:10.37,2013-04-26 17:19:00,
2013-04-26 11:20:00,71.5,14.2,30.17,NW,316,5.8,5.8,11,0.00,CLR,,0.00,WeatherDisplay:10.37,2013-04-26 17:20:00,
2013-04-26 11:21:00,71.5,14.2,30.17,WSW,238,6.9,6.9,11,0.00,CLR,,0.00,WeatherDisplay:10.37,2013-04-26 17:21:00,
2013-04-26 11:23:00,71.7,14.3,30.17,NNW,328,6.9,6.9,11,0.00,CLR,,0.00,WeatherDisplay:10.37,2013-04-26 17:23:00,
2013-04-26 11:24:00,71.6,12.1,30.17,NW,314,6.9,6.9,10,0.00,CLR,,0.00,WeatherDisplay:10.37,2013-04-26 17:24:00,
2013-04-26 11:25:00,71.6,12.1,30.17,NW,318,3.4,3.4,10,0.00,CLR,,0.00,WeatherDisplay:10.37,2013-04-26 17:25:00,
2013-04-26 11:26:00,71.7,14.3,30.17,West,276,3.4,3.4,11,0.00,CLR,,0.00,WeatherDisplay:10.37,2013-04-26 17:26:00,
2013-04-26 11:28:00,71.8,14.4,30.17,West,280,5.0,5.0,11,0.00,CLR,,0.00,WeatherDisplay:10.37,2013-04-26 17:28:00,
2013-04-26 11:29:00,71.9,12.3,30.17,WNW,294,5.8,5.8,10,0.00,CLR,,0.00,WeatherDisplay:10.37,2013-04-26 17:29:00,
2013-04-26 11:30:00,72.0,12.4,30.17,SW,235,6.0,6.0,10,0.00,CLR,,0.00,WeatherDisplay:10.37,2013-04-26 17:30:00,
2013-04-26 11:31:00,72.0,12.4,30.17,SW,226,4.6,4.6,10,0.00,CLR,,0.00,WeatherDisplay:10.37,2013-04-26 17:31:00,
2013-04-26 11:34:00,72.4,10.3,30.17,West,277,5.8,5.8,9,0.00,CLR,,0.00,WeatherDisplay:10.37,2013-04-26 17:34:00,
2013-04-26 11:36:00,72.6,12.8,30.17,SW,226,5.8,5.8,10,0.00,CLR,,0.00,WeatherDisplay:10.37,2013-04-26 17:36:00,
2013-04-26 11:39:00,72.9,10.7,30.17,WNW,295,8.1,8.1,9,0.00,CLR,,0.00,WeatherDisplay:10.37,2013-04-26 17:39:00,
2013-04-26 11:40:00,72.9,13.1,30.17,SW,235,8.1,8.1,10,0.00,CLR,,0.00,WeatherDisplay:10.37,2013-04-26 17:40:00,
2013-04-26 11:41:00,73.1,13.2,30.17,West,280,3.4,3.4,10,0.00,CLR,,0.00,WeatherDisplay:10.37,2013-04-26 17:41:00,
2013-04-26 11:44:00,73.5,13.5,30.17,SW,218,5.8,5.8,10,0.00,CLR,,0.00,WeatherDisplay:10.37,2013-04-26 17:44:00,
2013-04-26 11:45:00,73.5,13.5,30.17,WSW,242,5.8,5.8,10,0.00,CLR,,0.00,WeatherDisplay:10.37,2013-04-26 17:45:00,
2013-04-26 11:46:00,73.4,13.5,30.17,West,262,4.6,4.6,10,0.00,CLR,,0.00,WeatherDisplay:10.37,2013-04-26 17:46:00,
2013-04-26 11:47:00,73.4,13.5,30.17,SSW,203,5.8,5.8,10,0.00,CLR,,0.00,WeatherDisplay:10.37,2013-04-26 17:47:00,
2013-04-26 11:49:00,73.3,13.4,30.17,NW,319,10.3,10.3,10,0.00,CLR,,0.00,WeatherDisplay:10.37,2013-04-26 17:49:00,
2013-04-26 11:50:00,73.2,13.3,30.17,NW,315,10.3,10.3,10,0.00,CLR,,0.00,WeatherDisplay:10.37,2013-04-26 17:50:00,
2013-04-26 11:51:00,73.1,13.2,30.17,West,281,3.4,3.4,10,0.00,CLR,,0.00,WeatherDisplay:10.37,2013-04-26 17:51:00,
2013-04-26 11:52:00,73.1,15.4,30.17,SW,223,3.0,3.0,11,0.00,CLR,,0.00,WeatherDisplay:10.37,2013-04-26 17:52:00,
2013-04-26 11:55:00,73.6,13.6,30.17,NW,325,8.1,8.1,10,0.00,CLR,,0.00,WeatherDisplay:10.37,2013-04-26 17:55:00,
2013-04-26 11:56:00,73.5,13.5,30.17,NNW,339,8.1,8.1,10,0.00,CLR,,0.00,WeatherDisplay:10.37,2013-04-26 17:56:00,
2013-04-26 11:57:00,73.4,13.5,30.17,NW,307,5.8,5.8,10,0.00,CLR,,0.00,WeatherDisplay:10.37,2013-04-26 17:57:00,
2013-04-26 12:00:00,72.9,13.1,30.16,West,267,4.6,4.6,10,0.00,CLR,,0.00,WeatherDisplay:10.37,2013-04-26 18:00:00,
2013-04-26 12:01:00,73.0,13.1,30.16,NW,312,5.0,5.0,10,0.00,CLR,,0.00,WeatherDisplay:10.37,2013-04-26 18:01:00,
2013-04-26 12:02:00,73.0,13.1,30.16,West,263,4.6,4.6,10,0.00,CLR,,0.00,WeatherDisplay:10.37,2013-04-26 18:02:00,
2013-04-26 12:05:00,72.9,13.1,30.16,West,270,4.6,4.6,10,0.00,CLR,,0.00,WeatherDisplay:10.37,2013-04-26 18:05:00,
2013-04-26 12:06:00,73.0,13.1,30.16,WNW,291,4.6,4.6,10,0.00,CLR,,0.00,WeatherDisplay:10.37,2013-04-26 18:06:00,
2013-04-26 12:07:00,73.1,13.2,30.16,West,281,6.0,6.0,10,0.00,CLR,,0.00,WeatherDisplay:10.37,2013-04-26 18:07:00,
2013-04-26 12:11:00,73.4,13.5,30.16,WNW,283,10.3,10.3,10,0.00,CLR,,0.00,WeatherDisplay:10.37,2013-04-26 18:11:00,
2013-04-26 12:12:00,73.3,13.4,30.16,WNW,297,5.8,5.8,10,0.00,CLR,,0.00,WeatherDisplay:10.37,2013-04-26 18:12:00,
2013-04-26 12:13:00,73.3,13.4,30.16,South,181,4.6,4.6,10,0.00,CLR,,0.00,WeatherDisplay:10.37,2013-04-26 18:13:00,
2013-04-26 12:16:00,74.2,11.7,30.16,SW,228,3.4,3.4,9,0.00,CLR,,0.00,WeatherDisplay:10.37,2013-04-26 18:16:00,
2013-04-26 12:17:00,74.3,11.8,30.16,SSW,207,3.4,3.4,9,0.00,CLR,,0.00,WeatherDisplay:10.37,2013-04-26 18:17:00,
2013-04-26 12:18:00,74.9,14.6,30.16,WNW,295,4.0,4.0,10,0.00,CLR,,0.00,WeatherDisplay:10.37,2013-04-26 18:18:00,
2013-04-26 12:21:00,75.3,12.5,30.15,WNW,285,3.4,3.4,9,0.00,CLR,,0.00,WeatherDisplay:10.37,2013-04-26 18:21:00,
2013-04-26 12:22:00,75.3,12.5,30.15,NW,316,3.4,3.4,9,0.00,CLR,,0.00,WeatherDisplay:10.37,2013-04-26 18:22:00,
2013-04-26 12:24:00,75.1,12.4,30.15,West,264,5.0,9.0,9,0.00,CLR,,0.00,WeatherDisplay:10.37,2013-04-26 18:24:00,
2013-04-26 12:26:00,74.6,12.0,30.15,NW,318,6.9,6.9,9,0.00,CLR,,0.00,WeatherDisplay:10.37,2013-04-26 18:26:00,
2013-04-26 12:27:00,74.6,12.0,30.15,NW,306,6.9,6.9,9,0.00,CLR,,0.00,WeatherDisplay:10.37,2013-04-26 18:27:00,
2013-04-26 12:28:00,74.6,14.4,30.15,WNW,289,5.0,5.0,10,0.00,CLR,,0.00,WeatherDisplay:10.37,2013-04-26 18:28:00,
2013-04-26 12:29:00,74.3,11.8,30.15,West,276,5.0,5.0,9,0.00,CLR,,0.00,WeatherDisplay:10.37,2013-04-26 18:29:00,
2013-04-26 12:32:00,74.0,11.5,30.15,West,278,3.4,3.4,9,0.00,CLR,,0.00,WeatherDisplay:10.37,2013-04-26 18:32:00,
2013-04-26 12:33:00,74.2,14.1,30.15,NW,304,4.6,4.6,10,0.00,CLR,,0.00,WeatherDisplay:10.37,2013-04-26 18:33:00,
2013-04-26 12:34:00,74.4,11.8,30.15,WNW,288,3.4,3.4,9,0.00,CLR,,0.00,WeatherDisplay:10.37,2013-04-26 18:34:00,
2013-04-26 12:37:00,75.0,14.7,30.15,West,263,1.1,1.2,10,0.00,CLR,,0.00,WeatherDisplay:10.37,2013-04-26 18:37:00,
2013-04-26 12:38:00,75.5,15.1,30.15,NW,304,8.1,8.1,10,0.00,CLR,,0.00,WeatherDisplay:10.37,2013-04-26 18:38:00,
2013-04-26 12:39:00,75.5,15.1,30.15,NW,314,6.9,6.9,10,0.00,CLR,,0.00,WeatherDisplay:10.37,2013-04-26 18:39:00,
2013-04-26 12:42:00,75.5,12.7,30.15,NW,311,3.4,3.4,9,0.00,CLR,,0.00,WeatherDisplay:10.37,2013-04-26 18:42:00,
2013-04-26 12:43:00,75.3,14.9,30.15,WNW,294,3.4,3.4,10,0.00,CLR,,0.00,WeatherDisplay:10.37,2013-04-26 18:43:00,
2013-04-26 12:44:00,75.3,14.9,30.15,WNW,294,6.0,6.0,10,0.00,CLR,,0.00,WeatherDisplay:10.37,2013-04-26 18:44:00,
2013-04-26 12:47:00,75.3,12.5,30.15,WNW,294,9.2,9.2,9,0.00,CLR,,0.00,WeatherDisplay:10.37,2013-04-26 18:47:00,
2013-04-26 12:48:00,75.1,12.4,30.15,WNW,291,11.5,11.5,9,0.00,CLR,,0.00,WeatherDisplay:10.37,2013-04-26 18:48:00,
2013-04-26 12:49:00,75.1,12.4,30.15,NW,304,8.1,8.1,9,0.00,CLR,,0.00,WeatherDisplay:10.37,2013-04-26 18:49:00,
2013-04-26 12:50:00,74.9,12.2,30.15,WNW,302,9.2,9.2,9,0.00,CLR,,0.00,WeatherDisplay:10.37,2013-04-26 18:50:00,
2013-04-26 12:52:00,74.6,14.4,30.15,West,266,8.1,8.1,10,0.00,CLR,,0.00,WeatherDisplay:10.37,2013-04-26 18:52:00,
2013-04-26 12:53:00,74.6,12.0,30.15,NW,307,9.0,9.0,9,0.00,CLR,,0.00,WeatherDisplay:10.37,2013-04-26 18:53:00,
2013-04-26 12:54:00,74.6,12.0,30.15,WNW,290,9.2,9.2,9,0.00,CLR,,0.00,WeatherDisplay:10.37,2013-04-26 18:54:00,
2013-04-26 12:55:00,74.6,12.0,30.15,WNW,290,5.8,5.8,9,0.00,CLR,,0.00,WeatherDisplay:10.37,2013-04-26 18:55:00,
2013-04-26 12:57:00,74.8,14.5,30.15,SSW,212,3.4,3.4,10,0.00,CLR,,0.00,WeatherDisplay:10.37,2013-04-26 18:57:00,
2013-04-26 12:58:00,75.1,14.8,30.15,WSW,256,3.4,3.4,10,0.00,CLR,,0.00,WeatherDisplay:10.37,2013-04-26 18:58:00,
2013-04-26 13:00:00,75.4,12.6,30.15,WNW,287,4.0,4.0,9,0.00,CLR,,0.00,WeatherDisplay:10.37,2013-04-26 19:00:00,
2013-04-26 13:02:00,75.5,15.1,30.15,WSW,252,6.9,6.9,10,0.00,CLR,,0.00,WeatherDisplay:10.37,2013-04-26 19:02:00,
2013-04-26 13:03:00,75.5,15.1,30.15,West,270,6.9,6.9,10,0.00,CLR,,0.00,WeatherDisplay:10.37,2013-04-26 19:03:00,
2013-04-26 13:05:00,75.6,15.1,30.15,WSW,246,10.3,10.3,10,0.00,CLR,,0.00,WeatherDisplay:10.37,2013-04-26 19:05:00,
2013-04-26 13:06:00,75.6,12.7,30.15,West,260,5.8,5.8,9,0.00,CLR,,0.00,WeatherDisplay:10.37,2013-04-26 19:06:00,
2013-04-26 13:07:00,75.8,12.9,30.15,NW,314,3.4,3.4,9,0.00,CLR,,0.00,WeatherDisplay:10.37,2013-04-26 19:07:00,
2013-04-26 13:08:00,75.8,12.9,30.15,NW,316,3.4,3.4,9,0.00,CLR,,0.00,WeatherDisplay:10.37,2013-04-26 19:08:00,
2013-04-26 13:10:00,76.2,13.2,30.15,West,276,4.6,4.6,9,0.00,CLR,,0.00,WeatherDisplay:10.37,2013-04-26 19:10:00,
2013-04-26 13:11:00,76.2,13.2,30.14,West,278,2.3,2.3,9,0.00,CLR,,0.00,WeatherDisplay:10.37,2013-04-26 19:11:00,
2013-04-26 13:13:00,76.2,15.6,30.15,NNW,342,2.3,2.3,10,0.00,CLR,,0.00,WeatherDisplay:10.37,2013-04-26 19:13:00,
2013-04-26 13:14:00,76.3,15.7,30.15,WSW,255,2.3,2.3,10,0.00,CLR,,0.00,WeatherDisplay:10.37,2013-04-26 19:14:00,
2013-04-26 13:15:00,76.6,15.9,30.14,West,271,4.0,4.0,10,0.00,CLR,,0.00,WeatherDisplay:10.37,2013-04-26 19:15:00,
2013-04-26 13:16:00,76.6,13.5,30.14,NE,35,6.0,6.0,9,0.00,CLR,,0.00,WeatherDisplay:10.37,2013-04-26 19:16:00,
2013-04-26 13:18:00,76.4,13.3,30.14,WNW,301,4.0,4.0,9,0.00,CLR,,0.00,WeatherDisplay:10.37,2013-04-26 19:18:00,
2013-04-26 13:19:00,76.3,13.3,30.14,West,270,3.4,3.4,9,0.00,CLR,,0.00,WeatherDisplay:10.37,2013-04-26 19:19:00,
2013-04-26 13:20:00,76.3,13.3,30.15,WNW,285,4.6,4.6,9,0.00,CLR,,0.00,WeatherDisplay:10.37,2013-04-26 19:20:00,
2013-04-26 13:21:00,76.2,13.2,30.14,WNW,295,5.8,5.8,9,0.00,CLR,,0.00,WeatherDisplay:10.37,2013-04-26 19:21:00,
2013-04-26 13:23:00,75.9,13.0,30.14,East,96,3.4,3.4,9,0.00,CLR,,0.00,WeatherDisplay:10.37,2013-04-26 19:23:00,
2013-04-26 13:24:00,75.9,13.0,30.14,East,88,3.4,3.4,9,0.00,CLR,,0.00,WeatherDisplay:10.37,2013-04-26 19:24:00,
2013-04-26 13:25:00,75.9,13.0,30.14,East,80,2.3,2.3,9,0.00,CLR,,0.00,WeatherDisplay:10.37,2013-04-26 19:25:00,
2013-04-26 13:26:00,76.1,13.1,30.14,NNW,337,1.1,1.1,9,0.00,CLR,,0.00,WeatherDisplay:10.37,2013-04-26 19:26:00,
2013-04-26 13:29:00,76.7,13.6,30.14,NE,40,1.1,1.1,9,0.00,CLR,,0.00,WeatherDisplay:10.37,2013-04-26 19:29:00,
2013-04-26 13:30:00,77.2,13.9,30.14,NNW,328,3.4,3.4,9,0.00,CLR,,0.00,WeatherDisplay:10.37,2013-04-26 19:30:00,
2013-04-26 13:31:00,77.3,11.3,30.14,NNW,328,1.1,1.1,8,0.00,CLR,,0.00,WeatherDisplay:10.37,2013-04-26 19:31:00,
2013-04-26 13:34:00,77.6,11.6,30.14,NNW,334,4.0,4.0,8,0.00,CLR,,0.00,WeatherDisplay:10.37,2013-04-26 19:34:00,
2013-04-26 13:35:00,77.7,14.3,30.14,SSW,205,5.0,5.0,9,0.00,CLR,,0.00,WeatherDisplay:10.37,2013-04-26 19:35:00,
2013-04-26 13:36:00,77.8,14.4,30.14,NNW,328,3.4,3.4,9,0.00,CLR,,0.00,WeatherDisplay:10.37,2013-04-26 19:36:00,
2013-04-26 13:39:00,77.5,11.5,30.14,WNW,293,6.9,6.9,8,0.00,CLR,,0.00,WeatherDisplay:10.37,2013-04-26 19:39:00,
2013-04-26 13:41:00,77.3,11.3,30.14,SW,221,5.8,5.8,8,0.00,CLR,,0.00,WeatherDisplay:10.37,2013-04-26 19:41:00,
2013-04-26 13:42:00,77.5,14.2,30.14,NW,306,5.8,5.8,9,0.00,CLR,,0.00,WeatherDisplay:10.37,2013-04-26 19:42:00,
2013-04-26 13:44:00,78.0,14.5,30.14,WNW,287,7.0,7.0,9,0.00,CLR,,0.00,WeatherDisplay:10.37,2013-04-26 19:44:00,
2013-04-26 13:45:00,78.0,14.5,30.14,West,276,9.2,9.2,9,0.00,CLR,,0.00,WeatherDisplay:10.37,2013-04-26 19:45:00,
2013-04-26 13:46:00,77.8,11.7,30.14,WNW,300,11.5,11.5,8,0.00,CLR,,0.00,WeatherDisplay:10.37,2013-04-26 19:46:00,
2013-04-26 13:47:00,77.7,11.6,30.14,NW,318,10.3,10.3,8,0.00,CLR,,0.00,WeatherDisplay:10.37,2013-04-26 19:47:00,
2013-04-26 13:49:00,77.2,13.9,30.14,NNW,335,11.5,11.5,9,0.00,CLR,,0.00,WeatherDisplay:10.37,2013-04-26 19:49:00,
2013-04-26 13:50:00,77.2,13.9,30.14,WSW,250,3.4,3.4,9,0.00,CLR,,0.00,WeatherDisplay:10.37,2013-04-26 19:50:00,
2013-04-26 13:51:00,77.3,14.0,30.14,WNW,294,2.3,2.3,9,0.00,CLR,,0.00,WeatherDisplay:10.37,2013-04-26 19:51:00,
2013-04-26 13:52:00,77.5,14.2,30.14,WNW,287,3.0,3.2,9,0.00,CLR,,0.00,WeatherDisplay:10.37,2013-04-26 19:52:00,
2013-04-26 13:54:00,77.5,14.2,30.14,WNW,290,3.4,3.4,9,0.00,CLR,,0.00,WeatherDisplay:10.37,2013-04-26 19:54:00,
2013-04-26 13:55:00,77.7,14.3,30.13,South,186,3.4,3.4,9,0.00,CLR,,0.00,WeatherDisplay:10.37,2013-04-26 19:55:00,
2013-04-26 13:56:00,77.8,14.4,30.13,East,89,2.3,2.3,9,0.00,CLR,,0.00,WeatherDisplay:10.37,2013-04-26 19:56:00,
2013-04-26 13:57:00,77.8,14.4,30.13,NNE,33,3.4,3.4,9,0.00,CLR,,0.00,WeatherDisplay:10.37,2013-04-26 19:57:00,
2013-04-26 13:59:00,78.3,12.1,30.13,SSW,212,4.0,4.0,8,0.00,CLR,,0.00,WeatherDisplay:10.37,2013-04-26 19:59:00,
2013-04-26 14:00:00,78.3,12.1,30.13,SW,235,3.4,3.4,8,0.00,CLR,,0.00,WeatherDisplay:10.37,2013-04-26 20:00:00,
2013-04-26 14:01:00,78.3,12.1,30.13,SE,131,3.0,3.0,8,0.00,CLR,,0.00,WeatherDisplay:10.37,2013-04-26 20:01:00,
2013-04-26 14:02:00,78.3,12.1,30.13,WSW,242,3.4,3.4,8,0.00,CLR,,0.00,WeatherDisplay:10.37,2013-04-26 20:02:00,
2013-04-26 14:04:00,78.5,12.2,30.13,WNW,283,5.8,5.8,8,0.00,CLR,,0.00,WeatherDisplay:10.37,2013-04-26 20:04:00,
2013-04-26 14:06:00,78.8,12.5,30.13,SW,231,5.8,5.8,8,0.00,CLR,,0.00,WeatherDisplay:10.37,2013-04-26 20:06:00,
2013-04-26 14:07:00,79.1,12.7,30.13,SW,229,6.9,6.9,8,0.00,CLR,,0.00,WeatherDisplay:10.37,2013-04-26 20:07:00,
2013-04-26 14:08:00,79.1,12.7,30.13,SW,225,8.0,8.0,8,0.00,CLR,,0.00,WeatherDisplay:10.37,2013-04-26 20:08:00,
2013-04-26 14:09:00,79.2,12.8,30.13,SW,215,8.1,8.1,8,0.00,CLR,,0.00,WeatherDisplay:10.37,2013-04-26 20:09:00,
2013-04-26 14:11:00,79.3,12.8,30.13,WNW,298,6.9,6.9,8,0.00,CLR,,0.00,WeatherDisplay:10.37,2013-04-26 20:11:00,
2013-04-26 14:12:00,79.1,12.7,30.13,West,280,3.4,3.4,8,0.00,CLR,,0.00,WeatherDisplay:10.37,2013-04-26 20:12:00,
2013-04-26 14:14:00,79.0,12.6,30.13,NNW,337,9.2,9.2,8,0.00,CLR,,0.00,WeatherDisplay:10.37,2013-04-26 20:14:00,
2013-04-26 14:16:00,78.5,12.2,30.13,West,259,6.9,6.9,8,0.00,CLR,,0.00,WeatherDisplay:10.37,2013-04-26 20:16:00,
2013-04-26 14:17:00,78.5,12.2,30.13,WSW,257,5.8,5.8,8,0.00,CLR,,0.00,WeatherDisplay:10.37,2013-04-26 20:17:00,
2013-04-26 14:19:00,78.5,12.2,30.13,NW,311,6.0,6.0,8,0.00,CLR,,0.00,WeatherDisplay:10.37,2013-04-26 20:19:00,
2013-04-26 14:21:00,78.3,12.1,30.13,WNW,289,5.0,5.0,8,0.00,CLR,,0.00,WeatherDisplay:10.37,2013-04-26 20:21:00,
2013-04-26 14:22:00,78.2,12.0,30.13,West,277,6.0,6.0,8,0.00,CLR,,0.00,WeatherDisplay:10.37,2013-04-26 20:22:00,
2013-04-26 14:24:00,77.8,11.7,30.13,WNW,283,6.9,6.9,8,0.00,CLR,,0.00,WeatherDisplay:10.37,2013-04-26 20:24:00,
2013-04-26 14:25:00,77.8,11.7,30.13,SW,235,6.9,6.9,8,0.00,CLR,,0.00,WeatherDisplay:10.37,2013-04-26 20:25:00,
2013-04-26 14:26:00,77.9,11.8,30.12,South,190,8.1,8.1,8,0.00,CLR,,0.00,WeatherDisplay:10.37,2013-04-26 20:26:00,
2013-04-26 14:27:00,78.2,12.0,30.12,West,277,8.1,8.1,8,0.00,CLR,,0.00,WeatherDisplay:10.37,2013-04-26 20:27:00,
2013-04-26 14:29:00,78.6,12.3,30.12,SW,226,11.0,11.0,8,0.00,CLR,,0.00,WeatherDisplay:10.37,2013-04-26 20:29:00,
2013-04-26 14:30:00,78.8,12.5,30.12,SW,235,11.5,11.5,8,0.00,CLR,,0.00,WeatherDisplay:10.37,2013-04-26 20:30:00,
2013-04-26 14:31:00,79.2,12.8,30.12,SW,225,12.0,12.0,8,0.00,CLR,,0.00,WeatherDisplay:10.37,2013-04-26 20:31:00,
2013-04-26 14:32:00,79.3,12.8,30.12,SW,236,11.5,11.5,8,0.00,CLR,,0.00,WeatherDisplay:10.37,2013-04-26 20:32:00,
2013-04-26 14:33:00,79.3,12.8,30.12,SSW,193,11.5,11.5,8,0.00,CLR,,0.00,WeatherDisplay:10.37,2013-04-26 20:33:00,
2013-04-26 14:34:00,79.3,12.8,30.12,WSW,250,10.3,10.3,8,0.00,CLR,,0.00,WeatherDisplay:10.37,2013-04-26 20:34:00,
2013-04-26 14:35:00,79.4,12.9,30.12,SW,227,12.0,12.0,8,0.00,CLR,,0.00,WeatherDisplay:10.37,2013-04-26 20:35:00,
2013-04-26 14:37:00,79.3,12.8,30.12,SW,219,11.5,11.5,8,0.00,CLR,,0.00,WeatherDisplay:10.37,2013-04-26 20:37:00,
2013-04-26 14:38:00,79.3,12.8,30.12,West,264,5.8,5.8,8,0.00,CLR,,0.00,WeatherDisplay:10.37,2013-04-26 20:38:00,
2013-04-26 14:39:00,79.2,12.8,30.12,SE,145,9.2,9.2,8,0.00,CLR,,0.00,WeatherDisplay:10.37,2013-04-26 20:39:00,
2013-04-26 14:40:00,79.3,12.8,30.12,SW,230,7.0,7.0,8,0.00,CLR,,0.00,WeatherDisplay:10.37,2013-04-26 20:40:00,
2013-04-26 14:42:00,79.5,13.0,30.12,SW,227,6.9,6.9,8,0.00,CLR,,0.00,WeatherDisplay:10.37,2013-04-26 20:42:00,
2013-04-26 14:43:00,79.4,12.9,30.12,WNW,295,6.9,6.9,8,0.00,CLR,,0.00,WeatherDisplay:10.37,2013-04-26 20:43:00,
2013-04-26 14:44:00,79.3,12.8,30.12,WSW,247,5.8,5.8,8,0.00,CLR,,0.00,WeatherDisplay:10.37,2013-04-26 20:44:00,
2013-04-26 14:45:00,79.3,12.8,30.12,West,262,4.6,4.6,8,0.00,CLR,,0.00,WeatherDisplay:10.37,2013-04-26 20:45:00,
2013-04-26 14:47:00,79.1,12.7,30.12,NE,40,3.4,3.4,8,0.00,CLR,,0.00,WeatherDisplay:10.37,2013-04-26 20:47:00,
2013-04-26 14:48:00,79.1,12.7,30.12,WNW,290,3.4,3.4,8,0.00,CLR,,0.00,WeatherDisplay:10.37,2013-04-26 20:48:00,
2013-04-26 14:49:00,79.3,12.8,30.12,West,271,3.4,3.4,8,0.00,CLR,,0.00,WeatherDisplay:10.37,2013-04-26 20:49:00,
2013-04-26 14:50:00,79.4,12.9,30.12,WNW,287,5.0,5.0,8,0.00,CLR,,0.00,WeatherDisplay:10.37,2013-04-26 20:50:00,
2013-04-26 14:52:00,79.1,12.7,30.11,NNW,337,5.8,5.8,8,0.00,CLR,,0.00,WeatherDisplay:10.37,2013-04-26 20:52:00,
2013-04-26 14:53:00,79.1,12.7,30.11,NW,308,5.8,5.8,8,0.00,CLR,,0.00,WeatherDisplay:10.37,2013-04-26 20:53:00,
2013-04-26 14:55:00,79.1,12.7,30.11,West,277,6.9,6.9,8,0.00,CLR,,0.00,WeatherDisplay:10.37,2013-04-26 20:55:00,
2013-04-26 14:56:00,79.2,12.8,30.11,SE,141,2.3,0.0,8,0.00,CLR,,0.00,WeatherDisplay:10.37,2013-04-26 20:56:00,
2013-04-26 14:58:00,79.7,13.1,30.11,NNW,332,5.0,5.0,8,0.00,CLR,,0.00,WeatherDisplay:10.37,2013-04-26 20:58:00,
2013-04-26 15:00:00,80.2,13.5,30.11,NW,308,8.0,8.0,8,0.00,CLR,,0.00,WeatherDisplay:10.37,2013-04-26 21:00:00,
2013-04-26 15:02:00,80.0,10.3,30.11,West,281,5.8,5.8,7,0.00,CLR,,0.00,WeatherDisplay:10.37,2013-04-26 21:02:00,
2013-04-26 15:03:00,79.6,10.0,30.11,NW,314,11.5,11.5,7,0.00,CLR,,0.00,WeatherDisplay:10.37,2013-04-26 21:03:00,
2013-04-26 15:05:00,79.2,12.8,30.11,West,266,5.8,5.8,8,0.00,CLR,,0.00,WeatherDisplay:10.37,2013-04-26 21:05:00,
2013-04-26 15:07:00,79.1,12.7,30.11,WNW,287,11.5,11.5,8,0.00,CLR,,0.00,WeatherDisplay:10.37,2013-04-26 21:07:00,
2013-04-26 15:08:00,78.9,12.5,30.11,WNW,302,8.1,8.1,8,0.00,CLR,,0.00,WeatherDisplay:10.37,2013-04-26 21:08:00,
2013-04-26 15:09:00,78.9,12.5,30.11,NW,304,3.0,12.0,8,0.00,CLR,,0.00,WeatherDisplay:10.37,2013-04-26 21:09:00,
2013-04-26 15:10:00,78.8,12.5,30.11,NW,304,6.9,6.9,8,0.00,CLR,,0.00,WeatherDisplay:10.37,2013-04-26 21:10:00,
2013-04-26 15:12:00,79.0,12.6,30.11,SW,227,5.8,5.8,8,0.00,CLR,,0.00,WeatherDisplay:10.37,2013-04-26 21:12:00,
2013-04-26 15:13:00,79.2,12.8,30.11,SW,229,8.1,8.1,8,0.00,CLR,,0.00,WeatherDisplay:10.37,2013-04-26 21:13:00,
2013-04-26 15:14:00,79.2,12.8,30.11,SW,229,8.1,8.1,8,0.00,CLR,,0.00,WeatherDisplay:10.37,2013-04-26 21:14:00,
2013-04-26 15:15:00,79.4,12.9,30.11,WSW,238,5.8,5.8,8,0.00,CLR,,0.00,WeatherDisplay:10.37,2013-04-26 21:15:00,
2013-04-26 15:17:00,80.1,13.4,30.11,SW,226,6.9,6.9,8,0.00,CLR,,0.00,WeatherDisplay:10.37,2013-04-26 21:17:00,
2013-04-26 15:19:00,80.1,10.4,30.11,WNW,293,5.8,5.8,7,0.00,CLR,,0.00,WeatherDisplay:10.37,2013-04-26 21:19:00,
2013-04-26 15:20:00,80.1,10.4,30.11,SW,221,3.4,3.4,7,0.00,CLR,,0.00,WeatherDisplay:10.37,2013-04-26 21:20:00,
2013-04-26 15:23:00,80.3,10.6,30.11,NNW,328,4.0,4.0,7,0.00,CLR,,0.00,WeatherDisplay:10.37,2013-04-26 21:23:00,
2013-04-26 15:24:00,80.3,10.6,30.11,WNW,283,4.6,4.6,7,0.00,CLR,,0.00,WeatherDisplay:10.37,2013-04-26 21:24:00,
2013-04-26 15:25:00,80.4,10.6,30.11,WNW,293,8.0,8.0,7,0.00,CLR,,0.00,WeatherDisplay:10.37,2013-04-26 21:25:00,
2013-04-26 15:28:00,79.8,13.2,30.11,SW,214,8.1,8.1,8,0.00,CLR,,0.00,WeatherDisplay:10.37,2013-04-26 21:28:00,
2013-04-26 15:29:00,79.9,13.3,30.10,SW,222,9.2,9.2,8,0.00,CLR,,0.00,WeatherDisplay:10.37,2013-04-26 21:29:00,
2013-04-26 15:30:00,80.1,13.4,30.10,West,263,9.2,9.2,8,0.00,CLR,,0.00,WeatherDisplay:10.37,2013-04-26 21:30:00,
2013-04-26 15:33:00,80.6,10.8,30.10,SW,235,7.0,7.0,7,0.00,CLR,,0.00,WeatherDisplay:10.37,2013-04-26 21:33:00,
2013-04-26 15:34:00,80.5,10.7,30.10,West,276,6.9,6.9,7,0.00,CLR,,0.00,WeatherDisplay:10.37,2013-04-26 21:34:00,
2013-04-26 15:35:00,80.5,10.7,30.10,SW,217,6.9,6.9,7,0.00,CLR,,0.00,WeatherDisplay:10.37,2013-04-26 21:35:00,
2013-04-26 15:36:00,80.5,10.7,30.10,WNW,298,3.4,3.4,7,0.00,CLR,,0.00,WeatherDisplay:10.37,2013-04-26 21:36:00,
2013-04-26 15:38:00,80.5,10.7,30.10,WNW,288,11.5,11.5,7,0.00,CLR,,0.00,WeatherDisplay:10.37,2013-04-26 21:38:00,
2013-04-26 15:39:00,80.4,10.6,30.10,WSW,255,11.5,11.5,7,0.00,CLR,,0.00,WeatherDisplay:10.37,2013-04-26 21:39:00,
2013-04-26 15:40:00,80.2,10.5,30.10,WNW,287,8.1,8.1,7,0.00,CLR,,0.00,WeatherDisplay:10.37,2013-04-26 21:40:00,
2013-04-26 15:41:00,80.1,10.4,30.10,NE,46,8.1,8.1,7,0.00,CLR,,0.00,WeatherDisplay:10.37,2013-04-26 21:41:00,
2013-04-26 15:43:00,80.0,13.4,30.10,NNE,25,9.2,9.2,8,0.00,CLR,,0.00,WeatherDisplay:10.37,2013-04-26 21:43:00,
2013-04-26 15:45:00,79.8,10.2,30.10,NNW,328,5.0,5.0,7,0.00,CLR,,0.00,WeatherDisplay:10.37,2013-04-26 21:45:00,
2013-04-26 15:46:00,79.8,10.2,30.10,SSW,203,3.4,3.4,7,0.00,CLR,,0.00,WeatherDisplay:10.37,2013-04-26 21:46:00,
2013-04-26 15:49:00,79.5,10.0,30.10,WSW,245,8.1,8.1,7,0.00,CLR,,0.00,WeatherDisplay:10.37,2013-04-26 21:49:00,
2013-04-26 15:50:00,79.5,13.0,30.10,SW,219,4.6,4.6,8,0.00,CLR,,0.00,WeatherDisplay:10.37,2013-04-26 21:50:00,
2013-04-26 15:51:00,79.6,13.1,30.10,NW,318,8.0,8.0,8,0.00,CLR,,0.00,WeatherDisplay:10.37,2013-04-26 21:51:00,
2013-04-26 15:52:00,79.7,13.1,30.10,West,279,11.5,11.5,8,0.00,CLR,,0.00,WeatherDisplay:10.37,2013-04-26 21:52:00,
2013-04-26 15:54:00,80.1,13.4,30.10,WNW,293,5.8,5.8,8,0.00,CLR,,0.00,WeatherDisplay:10.37,2013-04-26 21:54:00,
2013-04-26 15:55:00,80.4,10.6,30.10,NNW,328,3.4,3.4,7,0.00,CLR,,0.00,WeatherDisplay:10.37,2013-04-26 21:55:00,
2013-04-26 15:56:00,80.5,10.7,30.10,NNW,340,4.0,4.0,7,0.00,CLR,,0.00,WeatherDisplay:10.37,2013-04-26 21:56:00,
2013-04-26 15:57:00,80.5,10.7,30.10,West,281,5.8,6.3,7,0.00,CLR,,0.00,WeatherDisplay:10.37,2013-04-26 21:57:00,
2013-04-26 15:59:00,80.0,10.3,30.10,West,280,11.5,11.5,7,0.00,CLR,,0.00,WeatherDisplay:10.37,2013-04-26 21:59:00,
2013-04-26 16:01:00,79.6,10.0,30.10,NW,313,3.0,3.0,7,0.00,CLR,,0.00,WeatherDisplay:10.37,2013-04-26 22:01:00,
2013-04-26 16:02:00,79.3,9.8,30.10,NE,45,1.1,1.1,7,0.00,CLR,,0.00,WeatherDisplay:10.37,2013-04-26 22:02:00,
2013-04-26 16:04:00,79.2,9.8,30.10,SW,221,1.1,1.1,7,0.00,CLR,,0.00,WeatherDisplay:10.37,2013-04-26 22:04:00,
2013-04-26 16:06:00,79.4,9.9,30.10,NW,319,3.4,3.4,7,0.00,CLR,,0.00,WeatherDisplay:10.37,2013-04-26 22:06:00,
2013-04-26 16:07:00,79.4,9.9,30.09,NNE,19,4.6,4.6,7,0.00,CLR,,0.00,WeatherDisplay:10.37,2013-04-26 22:07:00,
2013-04-26 16:09:00,79.0,9.6,30.09,NNE,14,1.1,1.1,7,0.00,CLR,,0.00,WeatherDisplay:10.37,2013-04-26 22:09:00,
2013-04-26 16:11:00,79.2,9.8,30.09,ENE,62,2.3,2.3,7,0.00,CLR,,0.00,WeatherDisplay:10.37,2013-04-26 22:11:00,
2013-04-26 16:12:00,79.6,10.0,30.09,WNW,282,1.1,1.1,7,0.00,CLR,,0.00,WeatherDisplay:10.37,2013-04-26 22:12:00,
2013-04-26 16:14:00,80.2,10.5,30.09,WNW,288,2.3,2.3,7,0.00,CLR,,0.00,WeatherDisplay:10.37,2013-04-26 22:14:00,
2013-04-26 16:16:00,80.2,10.5,30.09,West,271,2.3,2.3,7,0.00,CLR,,0.00,WeatherDisplay:10.37,2013-04-26 22:16:00,
2013-04-26 16:17:00,80.3,10.6,30.09,WSW,245,2.3,2.3,7,0.00,CLR,,0.00,WeatherDisplay:10.37,2013-04-26 22:17:00,
2013-04-26 16:18:00,80.3,10.6,30.09,SW,230,2.3,2.3,7,0.00,CLR,,0.00,WeatherDisplay:10.37,2013-04-26 22:18:00,
2013-04-26 16:19:00,80.4,10.6,30.09,WNW,284,4.0,4.0,7,0.00,CLR,,0.00,WeatherDisplay:10.37,2013-04-26 22:19:00,
2013-04-26 16:21:00,80.3,10.6,30.09,WNW,287,3.4,3.4,7,0.00,CLR,,0.00,WeatherDisplay:10.37,2013-04-26 22:21:00,
2013-04-26 16:23:00,80.5,10.7,30.09,SW,225,10.3,10.3,7,0.00,CLR,,0.00,WeatherDisplay:10.37,2013-04-26 22:23:00,
2013-04-26 16:25:00,80.6,10.8,30.09,South,173,8.1,8.1,7,0.00,CLR,,0.00,WeatherDisplay:10.37,2013-04-26 22:25:00,
2013-04-26 16:26:00,80.7,10.9,30.09,SE,132,4.6,4.6,7,0.00,CLR,,0.00,WeatherDisplay:10.37,2013-04-26 22:26:00,
2013-04-26 16:28:00,80.9,11.0,30.09,WNW,290,4.0,4.0,7,0.00,CLR,,0.00,WeatherDisplay:10.37,2013-04-26 22:28:00,
2013-04-26 16:29:00,80.9,11.0,30.09,West,262,4.6,4.6,7,0.00,CLR,,0.00,WeatherDisplay:10.37,2013-04-26 22:29:00,
2013-04-26 16:30:00,80.7,10.9,30.09,West,266,4.6,4.6,7,0.00,CLR,,0.00,WeatherDisplay:10.37,2013-04-26 22:30:00,
2013-04-26 16:31:00,80.8,10.9,30.09,WSW,245,4.6,4.6,7,0.00,CLR,,0.00,WeatherDisplay:10.37,2013-04-26 22:31:00,
2013-04-26 16:33:00,80.9,11.0,30.09,SSW,204,4.6,4.6,7,0.00,CLR,,0.00,WeatherDisplay:10.37,2013-04-26 22:33:00,
2013-04-26 16:34:00,81.0,11.1,30.09,SW,233,4.6,4.6,7,0.00,CLR,,0.00,WeatherDisplay:10.37,2013-04-26 22:34:00,
2013-04-26 16:35:00,81.0,11.1,30.09,WNW,285,3.4,3.4,7,0.00,CLR,,0.00,WeatherDisplay:10.37,2013-04-26 22:35:00,
2013-04-26 16:36:00,81.1,11.1,30.09,West,279,6.9,6.9,7,0.00,CLR,,0.00,WeatherDisplay:10.37,2013-04-26 22:36:00,
2013-04-26 16:37:00,81.1,11.1,30.09,WNW,290,6.9,6.9,7,0.00,CLR,,0.00,WeatherDisplay:10.37,2013-04-26 22:37:00,
2013-04-26 16:39:00,81.0,11.1,30.09,SW,222,8.1,8.1,7,0.00,CLR,,0.00,WeatherDisplay:10.37,2013-04-26 22:39:00,
2013-04-26 16:40:00,80.8,7.5,30.08,WSW,253,5.8,5.8,6,0.00,CLR,,0.00,WeatherDisplay:10.37,2013-04-26 22:40:00,
2013-04-26 16:41:00,80.7,10.9,30.09,WNW,284,4.6,4.6,7,0.00,CLR,,0.00,WeatherDisplay:10.37,2013-04-26 22:41:00,
2013-04-26 16:42:00,80.7,10.9,30.09,WNW,290,3.4,3.4,7,0.00,CLR,,0.00,WeatherDisplay:10.37,2013-04-26 22:42:00,
2013-04-26 16:44:00,81.0,11.1,30.09,NNW,345,6.9,6.9,7,0.00,CLR,,0.00,WeatherDisplay:10.37,2013-04-26 22:44:00,
2013-04-26 16:46:00,80.8,10.9,30.08,NNW,333,9.2,9.2,7,0.00,CLR,,0.00,WeatherDisplay:10.37,2013-04-26 22:46:00,
2013-04-26 16:47:00,80.6,10.8,30.08,NNW,328,6.0,6.0,7,0.00,CLR,,0.00,WeatherDisplay:10.37,2013-04-26 22:47:00,
2013-04-26 16:49:00,80.4,10.6,30.08,NW,323,6.9,6.9,7,0.00,CLR,,0.00,WeatherDisplay:10.37,2013-04-26 22:49:00,
2013-04-26 16:51:00,80.6,10.8,30.08,WNW,291,6.0,6.0,7,0.00,CLR,,0.00,WeatherDisplay:10.37,2013-04-26 22:51:00,
2013-04-26 16:52:00,80.7,10.9,30.09,SSW,208,6.9,6.9,7,0.00,CLR,,0.00,WeatherDisplay:10.37,2013-04-26 22:52:00,
2013-04-26 16:54:00,80.9,7.6,30.08,WNW,299,2.0,7.0,6,0.00,CLR,,0.00,WeatherDisplay:10.37,2013-04-26 22:54:00,
2013-04-26 16:55:00,81.0,7.6,30.08,WNW,283,3.4,3.4,6,0.00,CLR,,0.00,WeatherDisplay:10.37,2013-04-26 22:55:00,
2013-04-26 16:56:00,81.0,7.6,30.08,WNW,283,3.4,3.4,6,0.00,CLR,,0.00,WeatherDisplay:10.37,2013-04-26 22:56:00,
2013-04-26 16:57:00,81.1,7.7,30.08,West,281,3.4,3.4,6,0.00,CLR,,0.00,WeatherDisplay:10.37,2013-04-26 22:57:00,
2013-04-26 16:59:00,81.0,7.6,30.08,SSW,212,6.9,6.9,6,0.00,CLR,,0.00,WeatherDisplay:10.37,2013-04-26 22:59:00,
2013-04-26 17:00:00,81.1,7.7,30.08,West,266,5.8,5.8,6,0.00,CLR,,0.00,WeatherDisplay:10.37,2013-04-26 23:00:00,
2013-04-26 17:01:00,81.2,7.8,30.08,WSW,255,5.8,5.8,6,0.00,CLR,,0.00,WeatherDisplay:10.37,2013-04-26 23:01:00,
2013-04-26 17:02:00,81.3,7.8,30.08,West,272,5.8,5.8,6,0.00,CLR,,0.00,WeatherDisplay:10.37,2013-04-26 23:02:00,
2013-04-26 17:05:00,81.2,7.8,30.08,SW,236,7.0,7.0,6,0.00,CLR,,0.00,WeatherDisplay:10.37,2013-04-26 23:05:00,
2013-04-26 17:06:00,81.1,7.7,30.08,SW,229,8.1,8.1,6,0.00,CLR,,0.00,WeatherDisplay:10.37,2013-04-26 23:06:00,
2013-04-26 17:08:00,81.1,7.7,30.08,SW,226,11.0,11.0,6,0.00,CLR,,0.00,WeatherDisplay:10.37,2013-04-26 23:08:00,
2013-04-26 17:10:00,80.9,7.6,30.08,West,276,5.8,5.8,6,0.00,CLR,,0.00,WeatherDisplay:10.37,2013-04-26 23:10:00,
2013-04-26 17:11:00,80.9,7.6,30.08,SW,233,8.1,8.1,6,0.00,CLR,,0.00,WeatherDisplay:10.37,2013-04-26 23:11:00,
2013-04-26 17:13:00,80.8,7.5,30.08,South,178,9.2,9.2,6,0.00,CLR,,0.00,WeatherDisplay:10.37,2013-04-26 23:13:00,
2013-04-26 17:15:00,81.0,7.6,30.08,SW,230,6.9,6.9,6,0.00,CLR,,0.00,WeatherDisplay:10.37,2013-04-26 23:15:00,
2013-04-26 17:16:00,81.1,7.7,30.08,SSE,160,9.2,9.2,6,0.00,CLR,,0.00,WeatherDisplay:10.37,2013-04-26 23:16:00,
2013-04-26 17:18:00,81.3,7.8,30.08,SE,141,8.1,8.1,6,0.00,CLR,,0.00,WeatherDisplay:10.37,2013-04-26 23:18:00,
2013-04-26 17:20:00,81.5,8.0,30.08,SW,218,6.9,6.9,6,0.00,CLR,,0.00,WeatherDisplay:10.37,2013-04-26 23:20:00,
2013-04-26 17:21:00,81.5,8.0,30.08,WSW,245,5.8,5.8,6,0.00,CLR,,0.00,WeatherDisplay:10.37,2013-04-26 23:21:00,
2013-04-26 17:23:00,81.5,8.0,30.08,West,278,12.0,12.0,6,0.00,CLR,,0.00,WeatherDisplay:10.37,2013-04-26 23:23:00,
2013-04-26 17:25:00,81.1,7.7,30.08,SSE,155,11.5,11.5,6,0.00,CLR,,0.00,WeatherDisplay:10.37,2013-04-26 23:25:00,
2013-04-26 17:26:00,81.0,7.6,30.08,WSW,245,11.5,11.5,6,0.00,CLR,,0.00,WeatherDisplay:10.37,2013-04-26 23:26:00,
2013-04-26 17:27:00,80.9,7.6,30.08,West,260,8.1,8.1,6,0.00,CLR,,0.00,WeatherDisplay:10.37,2013-04-26 23:27:00,
2013-04-26 17:28:00,80.9,7.6,30.09,West,262,9.2,9.2,6,0.00,CLR,,0.00,WeatherDisplay:10.37,2013-04-26 23:28:00,
2013-04-26 17:31:00,80.8,7.5,30.08,WSW,238,3.4,3.4,6,0.00,CLR,,0.00,WeatherDisplay:10.37,2013-04-26 23:31:00,
2013-04-26 17:32:00,80.9,7.6,30.08,SW,230,4.6,4.6,6,0.00,CLR,,0.00,WeatherDisplay:10.37,2013-04-26 23:32:00,
2013-04-26 17:33:00,81.0,7.6,30.08,West,272,5.8,5.8,6,0.00,CLR,,0.00,WeatherDisplay:10.37,2013-04-26 23:33:00,
2013-04-26 17:36:00,80.8,3.5,30.08,SSW,212,3.4,3.4,5,0.00,CLR,,0.00,WeatherDisplay:10.37,2013-04-26 23:36:00,
2013-04-26 17:37:00,80.8,7.5,30.08,WNW,294,2.3,2.3,6,0.00,CLR,,0.00,WeatherDisplay:10.37,2013-04-26 23:37:00,
2013-04-26 17:38:00,80.9,7.6,30.08,WSW,250,5.8,5.8,6,0.00,CLR,,0.00,WeatherDisplay:10.37,2013-04-26 23:38:00,
2013-04-26 17:39:00,80.9,7.6,30.08,West,271,5.8,5.8,6,0.00,CLR,,0.00,WeatherDisplay:10.37,2013-04-26 23:39:00,
2013-04-26 17:41:00,81.0,7.6,30.08,WNW,288,3.4,3.4,6,0.00,CLR,,0.00,WeatherDisplay:10.37,2013-04-26 23:41:00,
2013-04-26 17:42:00,81.0,3.6,30.08,WNW,285,5.0,5.0,5,0.00,CLR,,0.00,WeatherDisplay:10.37,2013-04-26 23:42:00,
2013-04-26 17:44:00,80.7,3.4,30.08,SE,135,4.6,4.6,5,0.00,CLR,,0.00,WeatherDisplay:10.37,2013-04-26 23:44:00,
2013-04-26 17:46:00,80.7,7.4,30.08,WNW,287,8.1,8.1,6,0.00,CLR,,0.00,WeatherDisplay:10.37,2013-04-26 23:46:00,
2013-04-26 17:47:00,80.7,7.4,30.08,West,278,4.6,4.6,6,0.00,CLR,,0.00,WeatherDisplay:10.37,2013-04-26 23:47:00,
2013-04-26 17:49:00,80.6,3.3,30.08,NW,315,6.9,6.9,5,0.00,CLR,,0.00,WeatherDisplay:10.37,2013-04-26 23:49:00,
2013-04-26 17:52:00,80.2,3.1,30.08,West,267,8.1,8.1,5,0.00,CLR,,0.00,WeatherDisplay:10.37,2013-04-26 23:52:00,
2013-04-26 17:53:00,80.2,3.1,30.08,West,264,5.8,5.8,5,0.00,CLR,,0.00,WeatherDisplay:10.37,2013-04-26 23:53:00,
2013-04-26 17:54:00,80.2,7.1,30.08,WNW,284,8.0,8.0,6,0.00,CLR,,0.00,WeatherDisplay:10.37,2013-04-26 23:54:00,
2013-04-26 18:05:00,79.9,2.9,30.09,WNW,297,7.0,7.0,5,0.00,CLR,,0.00,WeatherDisplay:10.37,2013-04-27 00:05:00,
2013-04-26 18:06:00,79.9,2.9,30.09,West,275,6.9,6.9,5,0.00,CLR,,0.00,WeatherDisplay:10.37,2013-04-27 00:06:00,
2013-04-26 18:10:00,80.0,2.9,30.09,SW,215,3.4,3.4,5,0.00,CLR,,0.00,WeatherDisplay:10.37,2013-04-27 00:10:00,
2013-04-26 18:11:00,80.0,2.9,30.09,West,264,3.4,3.4,5,0.00,CLR,,0.00,WeatherDisplay:10.37,2013-04-27 00:11:00,
2013-04-26 18:12:00,80.0,2.9,30.08,NW,304,3.4,3.4,5,0.00,CLR,,0.00,WeatherDisplay:10.37,2013-04-27 00:12:00,
2013-04-26 18:15:00,79.8,2.8,30.08,WNW,297,9.2,9.2,5,0.00,CLR,,0.00,WeatherDisplay:10.37,2013-04-27 00:15:00,
2013-04-26 18:16:00,79.8,6.8,30.08,WSW,248,9.2,9.2,6,0.00,CLR,,0.00,WeatherDisplay:10.37,2013-04-27 00:16:00,
2013-04-26 18:17:00,79.8,2.8,30.08,West,267,11.5,11.5,5,0.00,CLR,,0.00,WeatherDisplay:10.37,2013-04-27 00:17:00,
2013-04-26 18:20:00,79.6,6.6,30.08,NW,316,5.0,5.0,6,0.00,CLR,,0.00,WeatherDisplay:10.37,2013-04-27 00:20:00,
2013-04-26 18:21:00,79.6,6.6,30.08,WNW,284,4.6,4.6,6,0.00,CLR,,0.00,WeatherDisplay:10.37,2013-04-27 00:21:00,
2013-04-26 18:22:00,79.5,2.6,30.09,WNW,295,8.1,8.1,5,0.00,CLR,,0.00,WeatherDisplay:10.37,2013-04-27 00:22:00,
2013-04-26 18:25:00,79.3,6.4,30.08,West,263,8.1,8.1,6,0.00,CLR,,0.00,WeatherDisplay:10.37,2013-04-27 00:25:00,
2013-04-26 18:26:00,79.3,6.4,30.08,WSW,250,8.1,8.1,6,0.00,CLR,,0.00,WeatherDisplay:10.37,2013-04-27 00:26:00,
2013-04-26 18:27:00,79.3,6.4,30.08,SW,236,6.9,6.9,6,0.00,CLR,,0.00,WeatherDisplay:10.37,2013-04-27 00:27:00,
2013-04-26 18:31:00,79.6,6.6,30.09,SSW,203,10.3,10.3,6,0.00,CLR,,0.00,WeatherDisplay:10.37,2013-04-27 00:31:00,
2013-04-26 18:32:00,79.5,2.6,30.09,SSW,207,11.5,11.5,5,0.00,CLR,,0.00,WeatherDisplay:10.37,2013-04-27 00:32:00,
2013-04-26 18:33:00,79.4,6.5,30.09,South,170,3.4,3.4,6,0.00,CLR,,0.00,WeatherDisplay:10.37,2013-04-27 00:33:00,
2013-04-26 18:36:00,79.4,2.5,30.09,West,264,6.9,6.9,5,0.00,CLR,,0.00,WeatherDisplay:10.37,2013-04-27 00:36:00,
2013-04-26 18:37:00,79.4,2.5,30.09,West,266,8.1,8.1,5,0.00,CLR,,0.00,WeatherDisplay:10.37,2013-04-27 00:37:00,
2013-04-26 18:39:00,79.4,6.5,30.09,WSW,248,2.3,2.3,6,0.00,CLR,,0.00,WeatherDisplay:10.37,2013-04-27 00:39:00,
2013-04-26 18:41:00,79.5,6.5,30.09,WSW,255,2.3,2.3,6,0.00,CLR,,0.00,WeatherDisplay:10.37,2013-04-27 00:41:00,
2013-04-26 18:42:00,79.6,6.6,30.09,South,180,5.0,5.0,6,0.00,CLR,,0.00,WeatherDisplay:10.37,2013-04-27 00:42:00,
2013-04-26 18:45:00,79.7,6.7,30.09,WNW,285,7.0,7.0,6,0.00,CLR,,0.00,WeatherDisplay:10.37,2013-04-27 00:45:00,
2013-04-26 18:46:00,79.5,2.6,30.09,WNW,295,7.0,7.0,5,0.00,CLR,,0.00,WeatherDisplay:10.37,2013-04-27 00:46:00,
2013-04-26 18:47:00,79.4,2.5,30.08,WNW,293,5.8,5.8,5,0.00,CLR,,0.00,WeatherDisplay:10.37,2013-04-27 00:47:00,
2013-04-26 18:48:00,79.2,2.4,30.09,West,266,6.9,6.9,5,0.00,CLR,,0.00,WeatherDisplay:10.37,2013-04-27 00:48:00,
2013-04-26 18:50:00,79.1,2.3,30.09,NW,307,8.0,8.0,5,0.00,CLR,,0.00,WeatherDisplay:10.37,2013-04-27 00:50:00,
2013-04-26 18:51:00,78.9,2.1,30.09,WNW,285,6.9,6.9,5,0.00,CLR,,0.00,WeatherDisplay:10.37,2013-04-27 00:51:00,
2013-04-26 18:52:00,78.8,2.1,30.09,NW,307,6.9,6.9,5,0.00,CLR,,0.00,WeatherDisplay:10.37,2013-04-27 00:52:00,
2013-04-26 18:53:00,78.8,2.1,30.09,NW,316,6.9,6.9,5,0.00,CLR,,0.00,WeatherDisplay:10.37,2013-04-27 00:53:00,
2013-04-26 18:55:00,78.7,6.0,30.09,SSW,203,4.6,4.6,6,0.00,CLR,,0.00,WeatherDisplay:10.37,2013-04-27 00:55:00,
2013-04-26 18:57:00,78.7,6.0,30.09,West,277,5.8,5.8,6,0.00,CLR,,0.00,WeatherDisplay:10.37,2013-04-27 00:57:00,
2013-04-26 18:58:00,78.7,2.0,30.09,West,273,5.8,5.8,5,0.00,CLR,,0.00,WeatherDisplay:10.37,2013-04-27 00:58:00,
2013-04-26 19:00:00,78.6,5.9,30.09,SSW,206,9.2,9.2,6,0.00,CLR,,0.00,WeatherDisplay:10.37,2013-04-27 01:00:00,
2013-04-26 19:02:00,78.6,5.9,30.09,SW,235,3.4,3.4,6,0.00,CLR,,0.00,WeatherDisplay:10.37,2013-04-27 01:02:00,
2013-04-26 19:03:00,78.7,6.0,30.09,West,273,2.0,2.0,6,0.00,CLR,,0.00,WeatherDisplay:10.37,2013-04-27 01:03:00,
2013-04-26 19:04:00,78.8,6.0,30.09,NW,304,4.0,4.0,6,0.00,CLR,,0.00,WeatherDisplay:10.37,2013-04-27 01:04:00,
2013-04-26 19:05:00,78.8,6.0,30.09,WNW,301,4.6,4.6,6,0.00,CLR,,0.00,WeatherDisplay:10.37,2013-04-27 01:05:00,
2013-04-26 19:07:00,78.6,5.9,30.09,WSW,250,1.1,1.1,6,0.00,CLR,,0.00,WeatherDisplay:10.37,2013-04-27 01:07:00,
2013-04-26 19:08:00,78.7,6.0,30.09,WSW,253,1.1,0.0,6,0.00,CLR,,0.00,WeatherDisplay:10.37,2013-04-27 01:08:00,
2013-04-26 19:09:00,78.8,6.0,30.09,West,274,1.1,1.1,6,0.00,CLR,,0.00,WeatherDisplay:10.37,2013-04-27 01:09:00,
2013-04-26 19:10:00,78.8,6.0,30.09,West,265,1.1,1.1,6,0.00,CLR,,0.00,WeatherDisplay:10.37,2013-04-27 01:10:00,
2013-04-26 19:12:00,78.6,5.9,30.09,WNW,285,3.4,3.4,6,0.00,CLR,,0.00,WeatherDisplay:10.37,2013-04-27 01:12:00,
2013-04-26 19:13:00,78.4,5.8,30.09,WSW,249,2.3,2.3,6,0.00,CLR,,0.00,WeatherDisplay:10.37,2013-04-27 01:13:00,
2013-04-26 19:14:00,78.3,5.7,30.09,WSW,250,2.3,0.0,6,0.00,CLR,,0.00,WeatherDisplay:10.37,2013-04-27 01:14:00,
2013-04-26 19:15:00,77.8,5.3,30.09,West,262,1.1,1.1,6,0.00,CLR,,0.00,WeatherDisplay:10.37,2013-04-27 01:15:00,
2013-04-26 19:17:00,77.8,5.3,30.09,WNW,289,3.4,3.4,6,0.00,CLR,,0.00,WeatherDisplay:10.37,2013-04-27 01:17:00,
2013-04-26 19:18:00,77.7,5.2,30.09,WNW,290,2.3,2.3,6,0.00,CLR,,0.00,WeatherDisplay:10.37,2013-04-27 01:18:00,
2013-04-26 19:19:00,77.7,5.2,30.09,WNW,285,4.0,4.0,6,0.00,CLR,,0.00,WeatherDisplay:10.37,2013-04-27 01:19:00,
2013-04-26 19:20:00,77.6,5.2,30.09,SW,231,5.8,5.8,6,0.00,CLR,,0.00,WeatherDisplay:10.37,2013-04-27 01:20:00,
2013-04-26 19:23:00,77.5,5.1,30.09,West,270,1.1,1.1,6,0.00,CLR,,0.00,WeatherDisplay:10.37,2013-04-27 01:23:00,
2013-04-26 19:24:00,77.5,5.1,30.09,SW,217,3.4,3.4,6,0.00,CLR,,0.00,WeatherDisplay:10.37,2013-04-27 01:24:00,
2013-04-26 19:25:00,77.2,4.9,30.09,WNW,289,1.1,1.1,6,0.00,CLR,,0.00,WeatherDisplay:10.37,2013-04-27 01:25:00,
2013-04-26 19:28:00,76.9,8.1,30.09,WNW,282,1.1,1.1,7,0.00,CLR,,0.00,WeatherDisplay:10.37,2013-04-27 01:28:00,
2013-04-26 19:29:00,76.8,8.0,30.09,West,266,2.3,2.3,7,0.00,CLR,,0.00,WeatherDisplay:10.37,2013-04-27 01:29:00,
2013-04-26 19:31:00,76.5,7.8,30.09,WNW,285,5.0,5.0,7,0.00,CLR,,0.00,WeatherDisplay:10.37,2013-04-27 01:31:00,
2013-04-26 19:33:00,76.3,7.6,30.09,West,266,5.8,5.8,7,0.00,CLR,,0.00,WeatherDisplay:10.37,2013-04-27 01:33:00,
2013-04-26 19:34:00,76.2,7.5,30.09,WNW,289,5.8,5.8,7,0.00,CLR,,0.00,WeatherDisplay:10.37,2013-04-27 01:34:00,
2013-04-26 19:36:00,76.0,7.4,30.09,WNW,287,3.4,3.4,7,0.00,CLR,,0.00,WeatherDisplay:10.37,2013-04-27 01:36:00,
2013-04-26 19:38:00,75.8,7.3,30.09,West,273,2.3,2.3,7,0.00,CLR,,0.00,WeatherDisplay:10.37,2013-04-27 01:38:00,
2013-04-26 19:39:00,75.7,7.2,30.09,West,278,3.4,3.4,7,0.00,CLR,,0.00,WeatherDisplay:10.37,2013-04-27 01:39:00,
2013-04-26 19:41:00,75.5,7.0,30.09,WNW,285,1.1,1.1,7,0.00,CLR,,0.00,WeatherDisplay:10.37,2013-04-27 01:41:00,
2013-04-26 19:44:00,75.3,9.9,30.09,WNW,283,1.1,1.1,8,0.00,CLR,,0.00,WeatherDisplay:10.37,2013-04-27 01:44:00,
2013-04-26 19:46:00,75.0,9.6,30.09,WNW,293,3.0,3.0,8,0.00,CLR,,0.00,WeatherDisplay:10.37,2013-04-27 01:46:00,
2013-04-26 19:49:00,74.7,9.4,30.09,West,260,1.1,1.1,8,0.00,CLR,,0.00,WeatherDisplay:10.37,2013-04-27 01:49:00,
2013-04-26 19:50:00,74.6,9.3,30.09,NW,316,2.3,2.3,8,0.00,CLR,,0.00,WeatherDisplay:10.37,2013-04-27 01:50:00,
2013-04-26 19:51:00,74.5,9.3,30.09,SW,219,0.0,0.0,8,0.00,CLR,,0.00,WeatherDisplay:10.37,2013-04-27 01:51:00,
2013-04-26 19:54:00,74.2,9.0,30.10,SW,217,0.0,0.0,8,0.00,CLR,,0.00,WeatherDisplay:10.37,2013-04-27 01:54:00,
2013-04-26 19:55:00,74.0,8.9,30.10,WSW,255,1.0,1.0,8,0.00,CLR,,0.00,WeatherDisplay:10.37,2013-04-27 01:55:00,
2013-04-26 19:57:00,73.8,8.7,30.10,SW,231,0.0,0.0,8,0.00,CLR,,0.00,WeatherDisplay:10.37,2013-04-27 01:57:00,
2013-04-26 19:59:00,73.5,11.1,30.10,SW,231,0.0,0.0,9,0.00,CLR,,0.00,WeatherDisplay:10.37,2013-04-27 01:59:00,
2013-04-26 20:00:00,73.2,10.9,30.10,SW,231,0.0,0.0,9,0.00,CLR,,0.00,WeatherDisplay:10.37,2013-04-27 02:00:00,
2013-04-26 20:02:00,72.8,10.6,30.10,SW,229,0.0,0.0,9,0.00,CLR,,0.00,WeatherDisplay:10.37,2013-04-27 02:02:00,
2013-04-26 20:04:00,72.5,10.4,30.10,SW,231,0.0,0.0,9,0.00,CLR,,0.00,WeatherDisplay:10.37,2013-04-27 02:04:00,
2013-04-26 20:05:00,72.3,10.2,30.10,SW,231,0.0,0.0,9,0.00,CLR,,0.00,WeatherDisplay:10.37,2013-04-27 02:05:00,
2013-04-26 20:07:00,71.9,9.9,30.10,SW,231,0.0,0.0,9,0.00,CLR,,0.00,WeatherDisplay:10.37,2013-04-27 02:07:00,
2013-04-26 20:09:00,71.6,9.7,30.10,SW,231,0.0,0.0,9,0.00,CLR,,0.00,WeatherDisplay:10.37,2013-04-27 02:09:00,
2013-04-26 20:10:00,71.5,9.6,30.10,SW,231,0.0,0.0,9,0.00,CLR,,0.00,WeatherDisplay:10.37,2013-04-27 02:10:00,
2013-04-26 20:11:00,71.4,9.6,30.10,SW,231,0.0,0.0,9,0.00,CLR,,0.00,WeatherDisplay:10.37,2013-04-27 02:11:00,
2013-04-26 20:13:00,71.1,11.7,30.10,SW,231,0.0,0.0,10,0.00,CLR,,0.00,WeatherDisplay:10.37,2013-04-27 02:13:00,
2013-04-26 20:14:00,70.9,11.5,30.10,SW,231,0.0,0.0,10,0.00,CLR,,0.00,WeatherDisplay:10.37,2013-04-27 02:14:00,
2013-04-26 20:15:00,70.8,11.5,30.10,SW,231,0.0,0.0,10,0.00,CLR,,0.00,WeatherDisplay:10.37,2013-04-27 02:15:00,
2013-04-26 20:16:00,70.8,11.5,30.10,SW,226,0.0,0.0,10,0.00,CLR,,0.00,WeatherDisplay:10.37,2013-04-27 02:16:00,
2013-04-26 20:18:00,70.9,11.5,30.10,SW,226,0.0,0.0,10,0.00,CLR,,0.00,WeatherDisplay:10.37,2013-04-27 02:18:00,
2013-04-26 20:20:00,71.0,11.6,30.10,ESE,118,0.0,0.0,10,0.00,CLR,,0.00,WeatherDisplay:10.37,2013-04-27 02:20:00,
2013-04-26 20:21:00,71.1,13.9,30.10,ESE,102,1.1,0.0,11,0.00,CLR,,0.00,WeatherDisplay:10.37,2013-04-27 02:21:00,
2013-04-26 20:23:00,71.2,11.8,30.10,ENE,58,0.0,0.0,10,0.00,CLR,,0.00,WeatherDisplay:10.37,2013-04-27 02:23:00,
2013-04-26 20:25:00,71.2,13.9,30.10,ENE,64,1.1,0.0,11,0.00,CLR,,0.00,WeatherDisplay:10.37,2013-04-27 02:25:00,
2013-04-26 20:26:00,71.2,13.9,30.10,NE,47,1.1,1.1,11,0.00,CLR,,0.00,WeatherDisplay:10.37,2013-04-27 02:26:00,
2013-04-26 20:28:00,71.1,13.9,30.10,NE,56,2.0,2.0,11,0.00,CLR,,0.00,WeatherDisplay:10.37,2013-04-27 02:28:00,
2013-04-26 20:30:00,71.1,13.9,30.11,ENE,61,2.3,2.3,11,0.00,CLR,,0.00,WeatherDisplay:10.37,2013-04-27 02:30:00,
2013-04-26 20:31:00,71.0,15.8,30.11,NE,45,2.3,2.3,12,0.00,CLR,,0.00,WeatherDisplay:10.37,2013-04-27 02:31:00,
2013-04-26 20:34:00,70.9,15.7,30.11,NE,48,3.4,3.4,12,0.00,CLR,,0.00,WeatherDisplay:10.37,2013-04-27 02:34:00,
2013-04-26 20:35:00,70.8,15.6,30.11,NE,56,2.3,2.3,12,0.00,CLR,,0.00,WeatherDisplay:10.37,2013-04-27 02:35:00,
2013-04-26 20:36:00,70.7,15.5,30.11,NE,56,2.0,2.0,12,0.00,CLR,,0.00,WeatherDisplay:10.37,2013-04-27 02:36:00,
2013-04-26 20:37:00,70.7,13.5,30.11,NE,52,2.3,2.3,11,0.00,CLR,,0.00,WeatherDisplay:10.37,2013-04-27 02:37:00,
2013-04-26 20:39:00,70.7,15.5,30.11,NE,54,2.3,0.0,12,0.00,CLR,,0.00,WeatherDisplay:10.37,2013-04-27 02:39:00,
2013-04-26 20:40:00,70.7,13.5,30.11,NE,54,1.1,1.1,11,0.00,CLR,,0.00,WeatherDisplay:10.37,2013-04-27 02:40:00,
2013-04-26 20:41:00,70.6,15.5,30.11,NE,51,2.3,2.3,12,0.00,CLR,,0.00,WeatherDisplay:10.37,2013-04-27 02:41:00,
2013-04-26 20:42:00,70.6,13.5,30.11,NE,54,2.3,2.3,11,0.00,CLR,,0.00,WeatherDisplay:10.37,2013-04-27 02:42:00,
2013-04-26 20:44:00,70.5,13.4,30.11,ENE,58,2.3,2.3,11,0.00,CLR,,0.00,WeatherDisplay:10.37,2013-04-27 02:44:00,
2013-04-26 20:45:00,70.4,13.3,30.11,NE,48,2.3,2.3,11,0.00,CLR,,0.00,WeatherDisplay:10.37,2013-04-27 02:45:00,
2013-04-26 20:46:00,70.3,13.2,30.11,NE,44,2.3,2.3,11,0.00,CLR,,0.00,WeatherDisplay:10.37,2013-04-27 02:46:00,
2013-04-26 20:47:00,70.3,13.2,30.11,NE,53,2.3,2.3,11,0.00,CLR,,0.00,WeatherDisplay:10.37,2013-04-27 02:47:00,
2013-04-26 20:48:00,70.3,13.2,30.11,NE,56,2.3,2.3,11,0.00,CLR,,0.00,WeatherDisplay:10.37,2013-04-27 02:48:00,
2013-04-26 20:50:00,70.2,13.2,30.11,ENE,57,2.3,2.3,11,0.00,CLR,,0.00,WeatherDisplay:10.37,2013-04-27 02:50:00,
2013-04-26 20:51:00,70.2,13.2,30.11,ENE,65,2.3,2.3,11,0.00,CLR,,0.00,WeatherDisplay:10.37,2013-04-27 02:51:00,
2013-04-26 20:52:00,70.2,13.2,30.11,ENE,59,2.3,2.3,11,0.00,CLR,,0.00,WeatherDisplay:10.37,2013-04-27 02:52:00,
2013-04-26 20:53:00,70.2,13.2,30.11,NE,50,2.3,2.3,11,0.00,CLR,,0.00,WeatherDisplay:10.37,2013-04-27 02:53:00,
2013-04-26 20:55:00,70.1,13.1,30.12,NE,56,2.3,2.3,11,0.00,CLR,,0.00,WeatherDisplay:10.37,2013-04-27 02:55:00,
2013-04-26 20:56:00,70.1,15.1,30.12,ENE,58,2.3,2.3,12,0.00,CLR,,0.00,WeatherDisplay:10.37,2013-04-27 02:56:00,
2013-04-26 20:57:00,70.0,15.0,30.11,NE,52,2.3,2.3,12,0.00,CLR,,0.00,WeatherDisplay:10.37,2013-04-27 02:57:00,
2013-04-26 20:58:00,69.9,14.9,30.12,NE,44,2.3,2.3,12,0.00,CLR,,0.00,WeatherDisplay:10.37,2013-04-27 02:58:00,
2013-04-26 21:00:00,69.9,12.9,30.12,NE,53,3.4,3.4,11,0.00,CLR,,0.00,WeatherDisplay:10.37,2013-04-27 03:00:00,
2013-04-26 21:01:00,70.0,13.0,30.12,NE,56,3.4,3.4,11,0.00,CLR,,0.00,WeatherDisplay:10.37,2013-04-27 03:01:00,
2013-04-26 21:02:00,70.0,13.0,30.12,NE,40,3.4,3.4,11,0.00,CLR,,0.00,WeatherDisplay:10.37,2013-04-27 03:02:00,
2013-04-26 21:03:00,70.0,13.0,30.12,ENE,62,3.4,3.4,11,0.00,CLR,,0.00,WeatherDisplay:10.37,2013-04-27 03:03:00,
2013-04-26 21:05:00,70.1,13.1,30.12,ENE,60,3.4,3.4,11,0.00,CLR,,0.00,WeatherDisplay:10.37,2013-04-27 03:05:00,
2013-04-26 21:06:00,70.0,15.0,30.12,ENE,65,2.3,2.3,12,0.00,CLR,,0.00,WeatherDisplay:10.37,2013-04-27 03:06:00,
2013-04-26 21:07:00,70.0,15.0,30.12,ENE,65,2.3,2.3,12,0.00,CLR,,0.00,WeatherDisplay:10.37,2013-04-27 03:07:00,
2013-04-26 21:08:00,69.9,14.9,30.12,ENE,65,2.3,2.3,12,0.00,CLR,,0.00,WeatherDisplay:10.37,2013-04-27 03:08:00,
2013-04-26 21:10:00,69.6,14.7,30.12,NE,54,2.3,2.3,12,0.00,CLR,,0.00,WeatherDisplay:10.37,2013-04-27 03:10:00,
2013-04-26 21:11:00,69.6,14.7,30.12,NE,53,2.3,2.3,12,0.00,CLR,,0.00,WeatherDisplay:10.37,2013-04-27 03:11:00,
2013-04-26 21:12:00,69.6,14.7,30.12,NE,52,2.3,2.3,12,0.00,CLR,,0.00,WeatherDisplay:10.37,2013-04-27 03:12:00,
2013-04-26 21:13:00,69.5,14.6,30.12,ENE,70,1.1,0.0,12,0.00,CLR,,0.00,WeatherDisplay:10.37,2013-04-27 03:13:00,
2013-04-26 21:16:00,69.3,12.5,30.12,ENE,70,2.3,2.3,11,0.00,CLR,,0.00,WeatherDisplay:10.37,2013-04-27 03:16:00,
2013-04-26 21:17:00,69.2,12.4,30.12,ENE,58,2.3,2.3,11,0.00,CLR,,0.00,WeatherDisplay:10.37,2013-04-27 03:17:00,
2013-04-26 21:18:00,69.1,12.3,30.12,ENE,62,2.3,2.3,11,0.00,CLR,,0.00,WeatherDisplay:10.37,2013-04-27 03:18:00,
2013-04-26 21:21:00,69.0,12.2,30.13,ENE,59,2.3,2.3,11,0.00,CLR,,0.00,WeatherDisplay:10.37,2013-04-27 03:21:00,
2013-04-26 21:22:00,68.9,12.2,30.12,ENE,58,1.1,1.1,11,0.00,CLR,,0.00,WeatherDisplay:10.37,2013-04-27 03:22:00,
2013-04-26 21:23:00,68.9,12.2,30.13,ENE,58,1.1,1.1,11,0.00,CLR,,0.00,WeatherDisplay:10.37,2013-04-27 03:23:00,
2013-04-26 21:26:00,68.9,12.2,30.13,NE,44,2.3,2.3,11,0.00,CLR,,0.00,WeatherDisplay:10.37,2013-04-27 03:26:00,
2013-04-26 21:27:00,69.0,12.2,30.13,ENE,75,2.3,2.3,11,0.00,CLR,,0.00,WeatherDisplay:10.37,2013-04-27 03:27:00,
2013-04-26 21:28:00,69.0,12.2,30.13,ENE,60,2.3,2.3,11,0.00,CLR,,0.00,WeatherDisplay:10.37,2013-04-27 03:28:00,
2013-04-26 21:31:00,69.0,12.2,30.13,ENE,63,2.3,2.3,11,0.00,CLR,,0.00,WeatherDisplay:10.37,2013-04-27 03:31:00,
2013-04-26 21:32:00,69.0,10.1,30.13,ENE,66,2.3,2.3,10,0.00,CLR,,0.00,WeatherDisplay:10.37,2013-04-27 03:32:00,
2013-04-26 21:33:00,69.1,12.3,30.13,ENE,58,3.0,3.0,11,0.00,CLR,,0.00,WeatherDisplay:10.37,2013-04-27 03:33:00,
2013-04-26 21:34:00,69.0,12.2,30.13,NE,53,3.4,3.4,11,0.00,CLR,,0.00,WeatherDisplay:10.37,2013-04-27 03:34:00,
2013-04-26 21:36:00,69.0,12.2,30.13,ENE,65,1.0,1.0,11,0.00,CLR,,0.00,WeatherDisplay:10.37,2013-04-27 03:36:00,
2013-04-26 21:37:00,68.9,12.2,30.13,ENE,60,1.1,1.1,11,0.00,CLR,,0.00,WeatherDisplay:10.37,2013-04-27 03:37:00,
2013-04-26 21:38:00,68.9,12.2,30.13,ENE,60,1.1,1.1,11,0.00,CLR,,0.00,WeatherDisplay:10.37,2013-04-27 03:38:00,
2013-04-26 21:39:00,68.9,12.2,30.13,ENE,59,1.1,1.1,11,0.00,CLR,,0.00,WeatherDisplay:10.37,2013-04-27 03:39:00,
2013-04-26 21:41:00,68.8,12.1,30.13,ENE,60,1.1,1.1,11,0.00,CLR,,0.00,WeatherDisplay:10.37,2013-04-27 03:41:00,
2013-04-26 21:42:00,68.8,12.1,30.13,ENE,63,0.0,0.0,11,0.00,CLR,,0.00,WeatherDisplay:10.37,2013-04-27 03:42:00,
2013-04-26 21:43:00,68.8,12.1,30.13,ENE,63,0.0,0.0,11,0.00,CLR,,0.00,WeatherDisplay:10.37,2013-04-27 03:43:00,
2013-04-26 21:44:00,68.8,12.1,30.13,ENE,64,1.1,0.0,11,0.00,CLR,,0.00,WeatherDisplay:10.37,2013-04-27 03:44:00,
2013-04-26 21:46:00,68.6,11.9,30.14,ENE,64,1.1,1.1,11,0.00,CLR,,0.00,WeatherDisplay:10.37,2013-04-27 03:46:00,
2013-04-26 21:47:00,68.5,11.8,30.13,ENE,64,1.1,1.1,11,0.00,CLR,,0.00,WeatherDisplay:10.37,2013-04-27 03:47:00,
2013-04-26 21:48:00,68.5,11.8,30.14,ENE,63,1.1,1.1,11,0.00,CLR,,0.00,WeatherDisplay:10.37,2013-04-27 03:48:00,
2013-04-26 21:49:00,68.5,11.8,30.13,ENE,60,1.1,1.1,11,0.00,CLR,,0.00,WeatherDisplay:10.37,2013-04-27 03:49:00,
2013-04-26 21:51:00,68.6,11.9,30.13,ENE,68,1.1,1.1,11,0.00,CLR,,0.00,WeatherDisplay:10.37,2013-04-27 03:51:00,
2013-04-26 21:52:00,68.6,11.9,30.14,ENE,68,1.1,1.1,11,0.00,CLR,,0.00,WeatherDisplay:10.37,2013-04-27 03:52:00,
2013-04-26 21:53:00,68.6,11.9,30.14,ENE,68,1.1,1.1,11,0.00,CLR,,0.00,WeatherDisplay:10.37,2013-04-27 03:53:00,
2013-04-26 21:54:00,68.5,11.8,30.14,ENE,68,1.1,1.1,11,0.00,CLR,,0.00,WeatherDisplay:10.37,2013-04-27 03:54:00,
2013-04-26 21:57:00,68.4,11.8,30.14,ENE,69,1.1,1.1,11,0.00,CLR,,0.00,WeatherDisplay:10.37,2013-04-27 03:57:00,
2013-04-26 21:58:00,68.4,11.8,30.14,ENE,58,2.0,2.0,11,0.00,CLR,,0.00,WeatherDisplay:10.37,2013-04-27 03:58:00,
2013-04-26 21:59:00,68.4,11.8,30.14,ENE,61,1.1,1.1,11,0.00,CLR,,0.00,WeatherDisplay:10.37,2013-04-27 03:59:00,
2013-04-26 22:00:00,68.4,11.8,30.14,ENE,64,1.1,1.1,11,0.00,CLR,,0.00,WeatherDisplay:10.37,2013-04-27 04:00:00,
2013-04-26 22:01:00,68.4,9.6,30.14,ENE,68,2.3,2.3,10,0.00,CLR,,0.00,WeatherDisplay:10.37,2013-04-27 04:01:00,
2013-04-26 22:06:00,68.3,9.5,30.14,ENE,61,2.3,2.3,10,0.00,CLR,,0.00,WeatherDisplay:10.37,2013-04-27 04:06:00,
2013-04-26 22:11:00,68.3,11.7,30.14,NE,53,3.4,3.4,11,0.00,CLR,,0.00,WeatherDisplay:10.37,2013-04-27 04:11:00,
2013-04-26 22:12:00,68.3,11.7,30.14,NE,46,1.1,1.1,11,0.00,CLR,,0.00,WeatherDisplay:10.37,2013-04-27 04:12:00,
2013-04-26 22:16:00,68.1,9.4,30.14,NNE,32,1.1,0.0,10,0.00,CLR,,0.00,WeatherDisplay:10.37,2013-04-27 04:16:00,
2013-04-26 22:17:00,68.1,9.4,30.14,NE,34,0.0,0.0,10,0.00,CLR,,0.00,WeatherDisplay:10.37,2013-04-27 04:17:00,
2013-04-26 22:21:00,67.8,9.2,30.14,NNE,32,1.1,0.0,10,0.00,CLR,,0.00,WeatherDisplay:10.37,2013-04-27 04:21:00,
2013-04-26 22:22:00,67.8,9.2,30.14,NE,36,1.1,0.0,10,0.00,CLR,,0.00,WeatherDisplay:10.37,2013-04-27 04:22:00,
2013-04-26 22:26:00,67.7,9.1,30.14,NE,35,1.1,1.1,10,0.00,CLR,,0.00,WeatherDisplay:10.37,2013-04-27 04:26:00,
2013-04-26 22:27:00,67.8,9.2,30.14,NE,41,1.1,1.1,10,0.00,CLR,,0.00,WeatherDisplay:10.37,2013-04-27 04:27:00,
2013-04-26 22:31:00,67.9,9.2,30.14,NNE,23,1.1,1.1,10,0.00,CLR,,0.00,WeatherDisplay:10.37,2013-04-27 04:31:00,
2013-04-26 22:33:00,67.8,9.2,30.14,NE,44,1.1,1.1,10,0.00,CLR,,0.00,WeatherDisplay:10.37,2013-04-27 04:33:00,
2013-04-26 22:36:00,67.8,6.8,30.14,NE,35,1.1,1.1,9,0.00,CLR,,0.00,WeatherDisplay:10.37,2013-04-27 04:36:00,
2013-04-26 22:37:00,67.8,6.8,30.14,NE,36,1.1,1.1,9,0.00,CLR,,0.00,WeatherDisplay:10.37,2013-04-27 04:37:00,
2013-04-26 22:38:00,67.8,6.8,30.14,NE,37,1.1,1.1,9,0.00,CLR,,0.00,WeatherDisplay:10.37,2013-04-27 04:38:00,
2013-04-26 22:39:00,67.8,6.8,30.14,NE,36,1.1,1.1,9,0.00,CLR,,0.00,WeatherDisplay:10.37,2013-04-27 04:39:00,
2013-04-26 22:41:00,67.9,6.9,30.14,NE,42,2.3,2.3,9,0.00,CLR,,0.00,WeatherDisplay:10.37,2013-04-27 04:41:00,
2013-04-26 22:42:00,67.9,6.9,30.14,NE,41,2.3,2.3,9,0.00,CLR,,0.00,WeatherDisplay:10.37,2013-04-27 04:42:00,
2013-04-26 22:43:00,68.0,7.0,30.14,NNE,20,2.3,2.3,9,0.00,CLR,,0.00,WeatherDisplay:10.37,2013-04-27 04:43:00,
2013-04-26 22:44:00,68.0,7.0,30.14,NNE,32,1.0,2.0,9,0.00,CLR,,0.00,WeatherDisplay:10.37,2013-04-27 04:44:00,
2013-04-26 22:47:00,68.4,4.7,30.14,NNE,32,2.3,2.3,8,0.00,CLR,,0.00,WeatherDisplay:10.37,2013-04-27 04:47:00,
2013-04-26 22:48:00,68.5,4.8,30.14,NNE,16,2.3,2.3,8,0.00,CLR,,0.00,WeatherDisplay:10.37,2013-04-27 04:48:00,
2013-04-26 22:49:00,68.6,4.8,30.14,NNE,20,2.3,2.3,8,0.00,CLR,,0.00,WeatherDisplay:10.37,2013-04-27 04:49:00,
2013-04-26 22:52:00,68.6,4.8,30.14,NNE,22,2.3,2.3,8,0.00,CLR,,0.00,WeatherDisplay:10.37,2013-04-27 04:52:00,
2013-04-26 22:54:00,68.8,5.0,30.14,NNE,16,3.4,3.4,8,0.00,CLR,,0.00,WeatherDisplay:10.37,2013-04-27 04:54:00,
2013-04-26 22:57:00,68.9,5.1,30.14,NNE,17,2.0,2.0,8,0.00,CLR,,0.00,WeatherDisplay:10.37,2013-04-27 04:57:00,
2013-04-26 22:58:00,69.0,5.1,30.14,NE,44,3.4,3.4,8,0.00,CLR,,0.00,WeatherDisplay:10.37,2013-04-27 04:58:00,
2013-04-26 22:59:00,69.0,5.1,30.14,NE,36,3.4,3.4,8,0.00,CLR,,0.00,WeatherDisplay:10.37,2013-04-27 04:59:00,
2013-04-26 23:00:00,69.1,5.2,30.14,NE,36,2.3,2.3,8,0.00,CLR,,0.00,WeatherDisplay:10.37,2013-04-27 05:00:00,
2013-04-26 23:02:00,69.2,5.3,30.14,NNE,22,2.3,2.3,8,0.00,CLR,,0.00,WeatherDisplay:10.37,2013-04-27 05:02:00,
2013-04-26 23:03:00,69.2,5.3,30.14,NNE,23,2.3,2.3,8,0.00,CLR,,0.00,WeatherDisplay:10.37,2013-04-27 05:03:00,
2013-04-26 23:04:00,69.3,5.4,30.14,NNE,25,3.4,3.4,8,0.00,CLR,,0.00,WeatherDisplay:10.37,2013-04-27 05:04:00,
2013-04-26 23:05:00,69.4,5.4,30.14,NNW,329,3.4,3.4,8,0.00,CLR,,0.00,WeatherDisplay:10.37,2013-04-27 05:05:00,
2013-04-26 23:07:00,69.6,5.6,30.14,North,5,5.8,5.8,8,0.00,CLR,,0.00,WeatherDisplay:10.37,2013-04-27 05:07:00,
2013-04-26 23:08:00,69.7,5.7,30.14,NE,52,5.8,5.8,8,0.00,CLR,,0.00,WeatherDisplay:10.37,2013-04-27 05:08:00,
2013-04-26 23:09:00,69.8,5.7,30.14,NNE,20,3.4,3.4,8,0.00,CLR,,0.00,WeatherDisplay:10.37,2013-04-27 05:09:00,
2013-04-26 23:10:00,69.9,5.8,30.14,NNE,15,8.0,8.0,8,0.00,CLR,,0.00,WeatherDisplay:10.37,2013-04-27 05:10:00,
2013-04-26 23:12:00,70.1,6.0,30.14,NNE,16,4.6,4.6,8,0.00,CLR,,0.00,WeatherDisplay:10.37,2013-04-27 05:12:00,
2013-04-26 23:13:00,70.1,6.0,30.14,NE,39,4.6,4.6,8,0.00,CLR,,0.00,WeatherDisplay:10.37,2013-04-27 05:13:00,
2013-04-26 23:14:00,70.2,6.0,30.14,NNE,23,4.6,4.6,8,0.00,CLR,,0.00,WeatherDisplay:10.37,2013-04-27 05:14:00,
2013-04-26 23:16:00,70.4,6.2,30.14,NE,34,6.9,6.9,8,0.00,CLR,,0.00,WeatherDisplay:10.37,2013-04-27 05:16:00,
2013-04-26 23:18:00,70.5,6.3,30.14,North,10,4.6,4.6,8,0.00,CLR,,0.00,WeatherDisplay:10.37,2013-04-27 05:18:00,
2013-04-26 23:19:00,70.5,6.3,30.14,NE,51,3.4,3.4,8,0.00,CLR,,0.00,WeatherDisplay:10.37,2013-04-27 05:19:00,
2013-04-26 23:21:00,70.6,6.3,30.14,North,11,4.6,4.6,8,0.00,CLR,,0.00,WeatherDisplay:10.37,2013-04-27 05:21:00,
2013-04-26 23:23:00,70.6,6.3,30.14,North,8,4.6,4.6,8,0.00,CLR,,0.00,WeatherDisplay:10.37,2013-04-27 05:23:00,
2013-04-26 23:24:00,70.6,6.3,30.14,NE,52,4.6,4.6,8,0.00,CLR,,0.00,WeatherDisplay:10.37,2013-04-27 05:24:00,
2013-04-26 23:25:00,70.6,6.3,30.14,NNE,25,4.6,4.6,8,0.00,CLR,,0.00,WeatherDisplay:10.37,2013-04-27 05:25:00,
2013-04-26 23:26:00,70.7,6.4,30.14,NNE,20,5.0,5.0,8,0.00,CLR,,0.00,WeatherDisplay:10.37,2013-04-27 05:26:00,
2013-04-26 23:28:00,70.7,6.4,30.14,NNE,29,6.9,6.9,8,0.00,CLR,,0.00,WeatherDisplay:10.37,2013-04-27 05:28:00,
2013-04-26 23:29:00,70.7,6.4,30.14,NNE,22,6.9,6.9,8,0.00,CLR,,0.00,WeatherDisplay:10.37,2013-04-27 05:29:00,
2013-04-26 23:30:00,70.8,6.5,30.14,North,11,4.6,4.6,8,0.00,CLR,,0.00,WeatherDisplay:10.37,2013-04-27 05:30:00,
2013-04-26 23:31:00,70.8,6.5,30.14,NNE,25,4.6,4.6,8,0.00,CLR,,0.00,WeatherDisplay:10.37,2013-04-27 05:31:00,
2013-04-26 23:33:00,70.8,6.5,30.14,NNE,20,5.8,5.8,8,0.00,CLR,,0.00,WeatherDisplay:10.37,2013-04-27 05:33:00,
2013-04-26 23:34:00,70.8,6.5,30.14,NE,35,5.8,5.8,8,0.00,CLR,,0.00,WeatherDisplay:10.37,2013-04-27 05:34:00,
2013-04-26 23:35:00,70.8,6.5,30.14,NE,37,5.8,5.8,8,0.00,CLR,,0.00,WeatherDisplay:10.37,2013-04-27 05:35:00,
2013-04-26 23:37:00,70.7,6.4,30.14,NNE,25,4.6,4.6,8,0.00,CLR,,0.00,WeatherDisplay:10.37,2013-04-27 05:37:00,
2013-04-26 23:38:00,70.7,6.4,30.14,NNW,340,3.4,3.4,8,0.00,CLR,,0.00,WeatherDisplay:10.37,2013-04-27 05:38:00,
2013-04-26 23:40:00,70.6,6.3,30.14,North,8,2.3,0.0,8,0.00,CLR,,0.00,WeatherDisplay:10.37,2013-04-27 05:40:00,
2013-04-26 23:42:00,70.4,6.2,30.14,NNE,14,3.4,3.4,8,0.00,CLR,,0.00,WeatherDisplay:10.37,2013-04-27 05:42:00,
2013-04-26 23:43:00,70.3,6.1,30.14,NNE,25,3.4,3.4,8,0.00,CLR,,0.00,WeatherDisplay:10.37,2013-04-27 05:43:00,
2013-04-26 23:44:00,70.2,6.0,30.14,North,11,3.4,3.4,8,0.00,CLR,,0.00,WeatherDisplay:10.37,2013-04-27 05:44:00,
2013-04-26 23:45:00,70.2,6.0,30.14,North,11,5.0,5.0,8,0.00,CLR,,0.00,WeatherDisplay:10.37,2013-04-27 05:45:00,
2013-04-26 23:47:00,70.1,6.0,30.14,NNW,342,4.6,4.6,8,0.00,CLR,,0.00,WeatherDisplay:10.37,2013-04-27 05:47:00,
2013-04-26 23:48:00,70.0,5.9,30.14,NNE,25,3.4,3.4,8,0.00,CLR,,0.00,WeatherDisplay:10.37,2013-04-27 05:48:00,
2013-04-26 23:49:00,70.0,5.9,30.14,NNW,348,3.4,3.4,8,0.00,CLR,,0.00,WeatherDisplay:10.37,2013-04-27 05:49:00,
2013-04-26 23:50:00,70.0,5.9,30.14,NE,53,4.0,4.0,8,0.00,CLR,,0.00,WeatherDisplay:10.37,2013-04-27 05:50:00,
2013-04-26 23:51:00,69.9,5.8,30.14,NNE,22,4.6,4.6,8,0.00,CLR,,0.00,WeatherDisplay:10.37,2013-04-27 05:51:00,
2013-04-26 23:52:00,69.8,5.7,30.14,North,5,3.4,3.4,8,0.00,CLR,,0.00,WeatherDisplay:10.37,2013-04-27 05:52:00,
2013-04-26 23:53:00,69.7,5.7,30.14,NNE,25,2.3,2.3,8,0.00,CLR,,0.00,WeatherDisplay:10.37,2013-04-27 05:53:00,
2013-04-26 23:54:00,69.7,5.7,30.14,North,9,3.4,3.4,8,0.00,CLR,,0.00,WeatherDisplay:10.37,2013-04-27 05:54:00,
2013-04-26 23:55:00,69.6,8.2,30.13,NNE,20,3.4,3.4,9,0.00,CLR,,0.00,WeatherDisplay:10.37,2013-04-27 05:55:00,
2013-04-26 23:56:00,69.5,8.1,30.13,North,6,3.4,3.4,9,0.00,CLR,,0.00,WeatherDisplay:10.37,2013-04-27 05:56:00,
2013-04-26 23:57:00,69.5,8.1,30.14,NE,41,6.9,6.9,9,0.00,CLR,,0.00,WeatherDisplay:10.37,2013-04-27 05:57:00,
2013-04-26 23:59:00,69.5,8.1,30.13,NNE,25,5.8,5.8,9,0.00,CLR,,0.00,WeatherDisplay:10.37,2013-04-27 05:59:00,